<?xml version="1.0" encoding="UTF-8"?>
<gpx xmlns:xsi="http://www.w3.org/2001/XMLSchema-instance" xsi:schemaLocation="http://www.topografix.com/GPX/1/1 http://www.topografix.com/GPX/1/1/gpx.xsd" creator="StravaGPX" version="1.1" xmlns="http://www.topografix.com/GPX/1/1">
 <metadata>
  <time>2025-12-21T11:27:19Z</time>
 </metadata>
 <trk>
  <name>Dublin Shops again</name>
  <type>walking</type>
  <trkseg>
   <trkpt lat="53.3525420" lon="-6.2478450">
    <ele>14.0</ele>
    <time>2025-12-21T11:27:19Z</time>
   </trkpt>
   <trkpt lat="53.3525320" lon="-6.2479280">
    <ele>12.5</ele>
    <time>2025-12-21T11:27:34Z</time>
   </trkpt>
   <trkpt lat="53.3524810" lon="-6.2479630">
    <ele>12.8</ele>
    <time>2025-12-21T11:27:39Z</time>
   </trkpt>
   <trkpt lat="53.3524260" lon="-6.2479310">
    <ele>12.6</ele>
    <time>2025-12-21T11:27:45Z</time>
   </trkpt>
   <trkpt lat="53.3523830" lon="-6.2479580">
    <ele>11.6</ele>
    <time>2025-12-21T11:27:57Z</time>
   </trkpt>
   <trkpt lat="53.3523440" lon="-6.2480240">
    <ele>11.1</ele>
    <time>2025-12-21T11:28:02Z</time>
   </trkpt>
   <trkpt lat="53.3523120" lon="-6.2481050">
    <ele>10.9</ele>
    <time>2025-12-21T11:28:07Z</time>
   </trkpt>
   <trkpt lat="53.3522610" lon="-6.2481650">
    <ele>10.8</ele>
    <time>2025-12-21T11:28:12Z</time>
   </trkpt>
   <trkpt lat="53.3521910" lon="-6.2482380">
    <ele>10.9</ele>
    <time>2025-12-21T11:28:18Z</time>
   </trkpt>
   <trkpt lat="53.3521330" lon="-6.2483220">
    <ele>10.9</ele>
    <time>2025-12-21T11:28:23Z</time>
   </trkpt>
   <trkpt lat="53.3520900" lon="-6.2484410">
    <ele>10.9</ele>
    <time>2025-12-21T11:28:29Z</time>
   </trkpt>
   <trkpt lat="53.3520450" lon="-6.2485490">
    <ele>10.9</ele>
    <time>2025-12-21T11:28:34Z</time>
   </trkpt>
   <trkpt lat="53.3519750" lon="-6.2486370">
    <ele>10.9</ele>
    <time>2025-12-21T11:28:39Z</time>
   </trkpt>
   <trkpt lat="53.3518990" lon="-6.2487220">
    <ele>10.9</ele>
    <time>2025-12-21T11:28:45Z</time>
   </trkpt>
   <trkpt lat="53.3518350" lon="-6.2488180">
    <ele>10.9</ele>
    <time>2025-12-21T11:28:50Z</time>
   </trkpt>
   <trkpt lat="53.3517740" lon="-6.2489000">
    <ele>10.9</ele>
    <time>2025-12-21T11:28:56Z</time>
   </trkpt>
   <trkpt lat="53.3517150" lon="-6.2489850">
    <ele>10.9</ele>
    <time>2025-12-21T11:29:01Z</time>
   </trkpt>
   <trkpt lat="53.3516710" lon="-6.2490840">
    <ele>11.0</ele>
    <time>2025-12-21T11:29:06Z</time>
   </trkpt>
   <trkpt lat="53.3516250" lon="-6.2491530">
    <ele>11.1</ele>
    <time>2025-12-21T11:29:12Z</time>
   </trkpt>
   <trkpt lat="53.3515730" lon="-6.2491990">
    <ele>11.1</ele>
    <time>2025-12-21T11:29:17Z</time>
   </trkpt>
   <trkpt lat="53.3515240" lon="-6.2492470">
    <ele>11.1</ele>
    <time>2025-12-21T11:29:23Z</time>
   </trkpt>
   <trkpt lat="53.3514840" lon="-6.2493210">
    <ele>11.1</ele>
    <time>2025-12-21T11:29:28Z</time>
   </trkpt>
   <trkpt lat="53.3514480" lon="-6.2493730">
    <ele>11.1</ele>
    <time>2025-12-21T11:29:36Z</time>
   </trkpt>
   <trkpt lat="53.3513930" lon="-6.2493920">
    <ele>11.1</ele>
    <time>2025-12-21T11:29:41Z</time>
   </trkpt>
   <trkpt lat="53.3513520" lon="-6.2494250">
    <ele>11.1</ele>
    <time>2025-12-21T11:29:47Z</time>
   </trkpt>
   <trkpt lat="53.3512930" lon="-6.2494480">
    <ele>11.2</ele>
    <time>2025-12-21T11:29:53Z</time>
   </trkpt>
   <trkpt lat="53.3512550" lon="-6.2495420">
    <ele>11.2</ele>
    <time>2025-12-21T11:29:58Z</time>
   </trkpt>
   <trkpt lat="53.3512100" lon="-6.2496420">
    <ele>11.2</ele>
    <time>2025-12-21T11:30:03Z</time>
   </trkpt>
   <trkpt lat="53.3511550" lon="-6.2497060">
    <ele>11.2</ele>
    <time>2025-12-21T11:30:09Z</time>
   </trkpt>
   <trkpt lat="53.3511330" lon="-6.2498090">
    <ele>10.6</ele>
    <time>2025-12-21T11:30:15Z</time>
   </trkpt>
   <trkpt lat="53.3511070" lon="-6.2498850">
    <ele>10.5</ele>
    <time>2025-12-21T11:30:20Z</time>
   </trkpt>
   <trkpt lat="53.3510580" lon="-6.2499980">
    <ele>10.8</ele>
    <time>2025-12-21T11:30:25Z</time>
   </trkpt>
   <trkpt lat="53.3509980" lon="-6.2500550">
    <ele>9.8</ele>
    <time>2025-12-21T11:30:31Z</time>
   </trkpt>
   <trkpt lat="53.3509510" lon="-6.2500920">
    <ele>7.7</ele>
    <time>2025-12-21T11:30:36Z</time>
   </trkpt>
   <trkpt lat="53.3509900" lon="-6.2501310">
    <ele>6.3</ele>
    <time>2025-12-21T11:30:44Z</time>
   </trkpt>
   <trkpt lat="53.3510750" lon="-6.2500700">
    <ele>5.7</ele>
    <time>2025-12-21T11:30:49Z</time>
   </trkpt>
   <trkpt lat="53.3511460" lon="-6.2500280">
    <ele>5.5</ele>
    <time>2025-12-21T11:30:54Z</time>
   </trkpt>
   <trkpt lat="53.3512170" lon="-6.2499960">
    <ele>5.4</ele>
    <time>2025-12-21T11:31:00Z</time>
   </trkpt>
   <trkpt lat="53.3512620" lon="-6.2500110">
    <ele>5.4</ele>
    <time>2025-12-21T11:31:05Z</time>
   </trkpt>
   <trkpt lat="53.3512680" lon="-6.2501190">
    <ele>5.4</ele>
    <time>2025-12-21T11:31:11Z</time>
   </trkpt>
   <trkpt lat="53.3512990" lon="-6.2502110">
    <ele>5.5</ele>
    <time>2025-12-21T11:31:16Z</time>
   </trkpt>
   <trkpt lat="53.3513280" lon="-6.2503330">
    <ele>5.4</ele>
    <time>2025-12-21T11:31:21Z</time>
   </trkpt>
   <trkpt lat="53.3513620" lon="-6.2504280">
    <ele>5.3</ele>
    <time>2025-12-21T11:31:26Z</time>
   </trkpt>
   <trkpt lat="53.3513720" lon="-6.2505370">
    <ele>5.3</ele>
    <time>2025-12-21T11:31:32Z</time>
   </trkpt>
   <trkpt lat="53.3513150" lon="-6.2506640">
    <ele>5.2</ele>
    <time>2025-12-21T11:31:37Z</time>
   </trkpt>
   <trkpt lat="53.3512880" lon="-6.2507900">
    <ele>5.3</ele>
    <time>2025-12-21T11:31:42Z</time>
   </trkpt>
   <trkpt lat="53.3512660" lon="-6.2509090">
    <ele>5.3</ele>
    <time>2025-12-21T11:31:47Z</time>
   </trkpt>
   <trkpt lat="53.3512370" lon="-6.2510410">
    <ele>5.3</ele>
    <time>2025-12-21T11:31:53Z</time>
   </trkpt>
   <trkpt lat="53.3512230" lon="-6.2511550">
    <ele>5.3</ele>
    <time>2025-12-21T11:31:58Z</time>
   </trkpt>
   <trkpt lat="53.3512030" lon="-6.2512740">
    <ele>5.3</ele>
    <time>2025-12-21T11:32:03Z</time>
   </trkpt>
   <trkpt lat="53.3511900" lon="-6.2514030">
    <ele>5.5</ele>
    <time>2025-12-21T11:32:09Z</time>
   </trkpt>
   <trkpt lat="53.3511730" lon="-6.2515340">
    <ele>5.6</ele>
    <time>2025-12-21T11:32:14Z</time>
   </trkpt>
   <trkpt lat="53.3511540" lon="-6.2516470">
    <ele>5.7</ele>
    <time>2025-12-21T11:32:19Z</time>
   </trkpt>
   <trkpt lat="53.3511300" lon="-6.2517660">
    <ele>5.7</ele>
    <time>2025-12-21T11:32:25Z</time>
   </trkpt>
   <trkpt lat="53.3511010" lon="-6.2518860">
    <ele>5.7</ele>
    <time>2025-12-21T11:32:30Z</time>
   </trkpt>
   <trkpt lat="53.3510660" lon="-6.2520120">
    <ele>5.7</ele>
    <time>2025-12-21T11:32:35Z</time>
   </trkpt>
   <trkpt lat="53.3510380" lon="-6.2521280">
    <ele>5.7</ele>
    <time>2025-12-21T11:32:40Z</time>
   </trkpt>
   <trkpt lat="53.3510110" lon="-6.2522350">
    <ele>5.7</ele>
    <time>2025-12-21T11:32:46Z</time>
   </trkpt>
   <trkpt lat="53.3510000" lon="-6.2523550">
    <ele>5.7</ele>
    <time>2025-12-21T11:32:51Z</time>
   </trkpt>
   <trkpt lat="53.3509860" lon="-6.2524810">
    <ele>5.7</ele>
    <time>2025-12-21T11:32:56Z</time>
   </trkpt>
   <trkpt lat="53.3509650" lon="-6.2526000">
    <ele>6.7</ele>
    <time>2025-12-21T11:33:01Z</time>
   </trkpt>
   <trkpt lat="53.3509310" lon="-6.2527130">
    <ele>6.6</ele>
    <time>2025-12-21T11:33:07Z</time>
   </trkpt>
   <trkpt lat="53.3509220" lon="-6.2528410">
    <ele>6.0</ele>
    <time>2025-12-21T11:33:12Z</time>
   </trkpt>
   <trkpt lat="53.3509180" lon="-6.2529590">
    <ele>5.8</ele>
    <time>2025-12-21T11:33:17Z</time>
   </trkpt>
   <trkpt lat="53.3509330" lon="-6.2530740">
    <ele>5.7</ele>
    <time>2025-12-21T11:33:22Z</time>
   </trkpt>
   <trkpt lat="53.3509240" lon="-6.2531920">
    <ele>5.7</ele>
    <time>2025-12-21T11:33:28Z</time>
   </trkpt>
   <trkpt lat="53.3508900" lon="-6.2533230">
    <ele>5.7</ele>
    <time>2025-12-21T11:33:33Z</time>
   </trkpt>
   <trkpt lat="53.3508590" lon="-6.2534350">
    <ele>6.2</ele>
    <time>2025-12-21T11:33:38Z</time>
   </trkpt>
   <trkpt lat="53.3508380" lon="-6.2535420">
    <ele>6.4</ele>
    <time>2025-12-21T11:33:44Z</time>
   </trkpt>
   <trkpt lat="53.3508180" lon="-6.2536370">
    <ele>6.3</ele>
    <time>2025-12-21T11:33:49Z</time>
   </trkpt>
   <trkpt lat="53.3507970" lon="-6.2537540">
    <ele>5.9</ele>
    <time>2025-12-21T11:33:54Z</time>
   </trkpt>
   <trkpt lat="53.3507770" lon="-6.2538610">
    <ele>5.6</ele>
    <time>2025-12-21T11:34:00Z</time>
   </trkpt>
   <trkpt lat="53.3507560" lon="-6.2539760">
    <ele>5.5</ele>
    <time>2025-12-21T11:34:05Z</time>
   </trkpt>
   <trkpt lat="53.3507390" lon="-6.2541040">
    <ele>5.7</ele>
    <time>2025-12-21T11:34:10Z</time>
   </trkpt>
   <trkpt lat="53.3507140" lon="-6.2542460">
    <ele>5.8</ele>
    <time>2025-12-21T11:34:16Z</time>
   </trkpt>
   <trkpt lat="53.3506980" lon="-6.2543350">
    <ele>5.8</ele>
    <time>2025-12-21T11:34:24Z</time>
   </trkpt>
   <trkpt lat="53.3506710" lon="-6.2544750">
    <ele>5.8</ele>
    <time>2025-12-21T11:34:29Z</time>
   </trkpt>
   <trkpt lat="53.3506430" lon="-6.2545990">
    <ele>5.8</ele>
    <time>2025-12-21T11:34:34Z</time>
   </trkpt>
   <trkpt lat="53.3506270" lon="-6.2547290">
    <ele>6.6</ele>
    <time>2025-12-21T11:34:39Z</time>
   </trkpt>
   <trkpt lat="53.3505980" lon="-6.2548360">
    <ele>6.6</ele>
    <time>2025-12-21T11:34:45Z</time>
   </trkpt>
   <trkpt lat="53.3505800" lon="-6.2549590">
    <ele>6.4</ele>
    <time>2025-12-21T11:34:50Z</time>
   </trkpt>
   <trkpt lat="53.3505620" lon="-6.2550780">
    <ele>6.4</ele>
    <time>2025-12-21T11:34:55Z</time>
   </trkpt>
   <trkpt lat="53.3505600" lon="-6.2551970">
    <ele>6.5</ele>
    <time>2025-12-21T11:35:00Z</time>
   </trkpt>
   <trkpt lat="53.3505420" lon="-6.2553120">
    <ele>6.5</ele>
    <time>2025-12-21T11:35:06Z</time>
   </trkpt>
   <trkpt lat="53.3505170" lon="-6.2554120">
    <ele>6.6</ele>
    <time>2025-12-21T11:35:11Z</time>
   </trkpt>
   <trkpt lat="53.3504990" lon="-6.2555200">
    <ele>6.6</ele>
    <time>2025-12-21T11:35:16Z</time>
   </trkpt>
   <trkpt lat="53.3504920" lon="-6.2556250">
    <ele>6.5</ele>
    <time>2025-12-21T11:35:22Z</time>
   </trkpt>
   <trkpt lat="53.3504680" lon="-6.2557580">
    <ele>6.3</ele>
    <time>2025-12-21T11:35:27Z</time>
   </trkpt>
   <trkpt lat="53.3504540" lon="-6.2558790">
    <ele>6.3</ele>
    <time>2025-12-21T11:35:32Z</time>
   </trkpt>
   <trkpt lat="53.3504210" lon="-6.2560240">
    <ele>6.3</ele>
    <time>2025-12-21T11:35:38Z</time>
   </trkpt>
   <trkpt lat="53.3503830" lon="-6.2561370">
    <ele>6.3</ele>
    <time>2025-12-21T11:35:43Z</time>
   </trkpt>
   <trkpt lat="53.3503710" lon="-6.2562720">
    <ele>6.3</ele>
    <time>2025-12-21T11:35:48Z</time>
   </trkpt>
   <trkpt lat="53.3503460" lon="-6.2563880">
    <ele>6.3</ele>
    <time>2025-12-21T11:35:53Z</time>
   </trkpt>
   <trkpt lat="53.3503380" lon="-6.2565250">
    <ele>6.3</ele>
    <time>2025-12-21T11:35:59Z</time>
   </trkpt>
   <trkpt lat="53.3503260" lon="-6.2566540">
    <ele>6.3</ele>
    <time>2025-12-21T11:36:04Z</time>
   </trkpt>
   <trkpt lat="53.3503060" lon="-6.2567700">
    <ele>6.3</ele>
    <time>2025-12-21T11:36:09Z</time>
   </trkpt>
   <trkpt lat="53.3502960" lon="-6.2568850">
    <ele>6.3</ele>
    <time>2025-12-21T11:36:15Z</time>
   </trkpt>
   <trkpt lat="53.3502760" lon="-6.2570140">
    <ele>6.3</ele>
    <time>2025-12-21T11:36:20Z</time>
   </trkpt>
   <trkpt lat="53.3502640" lon="-6.2571350">
    <ele>6.4</ele>
    <time>2025-12-21T11:36:25Z</time>
   </trkpt>
   <trkpt lat="53.3502350" lon="-6.2572410">
    <ele>6.4</ele>
    <time>2025-12-21T11:36:31Z</time>
   </trkpt>
   <trkpt lat="53.3502220" lon="-6.2573400">
    <ele>6.3</ele>
    <time>2025-12-21T11:36:36Z</time>
   </trkpt>
   <trkpt lat="53.3502020" lon="-6.2574590">
    <ele>6.3</ele>
    <time>2025-12-21T11:36:41Z</time>
   </trkpt>
   <trkpt lat="53.3502020" lon="-6.2575580">
    <ele>6.3</ele>
    <time>2025-12-21T11:36:47Z</time>
   </trkpt>
   <trkpt lat="53.3501850" lon="-6.2576790">
    <ele>6.2</ele>
    <time>2025-12-21T11:36:52Z</time>
   </trkpt>
   <trkpt lat="53.3501630" lon="-6.2578130">
    <ele>6.2</ele>
    <time>2025-12-21T11:36:57Z</time>
   </trkpt>
   <trkpt lat="53.3501390" lon="-6.2579470">
    <ele>6.2</ele>
    <time>2025-12-21T11:37:02Z</time>
   </trkpt>
   <trkpt lat="53.3501140" lon="-6.2580880">
    <ele>6.2</ele>
    <time>2025-12-21T11:37:08Z</time>
   </trkpt>
   <trkpt lat="53.3500980" lon="-6.2581760">
    <ele>6.2</ele>
    <time>2025-12-21T11:37:13Z</time>
   </trkpt>
   <trkpt lat="53.3500800" lon="-6.2582710">
    <ele>6.0</ele>
    <time>2025-12-21T11:37:18Z</time>
   </trkpt>
   <trkpt lat="53.3500680" lon="-6.2583610">
    <ele>6.2</ele>
    <time>2025-12-21T11:37:24Z</time>
   </trkpt>
   <trkpt lat="53.3500470" lon="-6.2584800">
    <ele>6.4</ele>
    <time>2025-12-21T11:37:29Z</time>
   </trkpt>
   <trkpt lat="53.3500300" lon="-6.2585860">
    <ele>6.4</ele>
    <time>2025-12-21T11:37:34Z</time>
   </trkpt>
   <trkpt lat="53.3500080" lon="-6.2586850">
    <ele>6.1</ele>
    <time>2025-12-21T11:37:39Z</time>
   </trkpt>
   <trkpt lat="53.3499970" lon="-6.2588170">
    <ele>6.8</ele>
    <time>2025-12-21T11:37:45Z</time>
   </trkpt>
   <trkpt lat="53.3499760" lon="-6.2589390">
    <ele>7.0</ele>
    <time>2025-12-21T11:37:50Z</time>
   </trkpt>
   <trkpt lat="53.3499650" lon="-6.2590400">
    <ele>7.1</ele>
    <time>2025-12-21T11:37:55Z</time>
   </trkpt>
   <trkpt lat="53.3499370" lon="-6.2591750">
    <ele>6.9</ele>
    <time>2025-12-21T11:38:01Z</time>
   </trkpt>
   <trkpt lat="53.3499270" lon="-6.2592970">
    <ele>6.8</ele>
    <time>2025-12-21T11:38:06Z</time>
   </trkpt>
   <trkpt lat="53.3499080" lon="-6.2593980">
    <ele>6.8</ele>
    <time>2025-12-21T11:38:11Z</time>
   </trkpt>
   <trkpt lat="53.3498820" lon="-6.2595230">
    <ele>6.8</ele>
    <time>2025-12-21T11:38:16Z</time>
   </trkpt>
   <trkpt lat="53.3498640" lon="-6.2596380">
    <ele>6.8</ele>
    <time>2025-12-21T11:38:22Z</time>
   </trkpt>
   <trkpt lat="53.3498760" lon="-6.2597580">
    <ele>6.9</ele>
    <time>2025-12-21T11:38:27Z</time>
   </trkpt>
   <trkpt lat="53.3498490" lon="-6.2598210">
    <ele>7.0</ele>
    <time>2025-12-21T11:38:45Z</time>
   </trkpt>
   <trkpt lat="53.3498360" lon="-6.2598950">
    <ele>7.0</ele>
    <time>2025-12-21T11:38:51Z</time>
   </trkpt>
   <trkpt lat="53.3497890" lon="-6.2598860">
    <ele>7.0</ele>
    <time>2025-12-21T11:38:58Z</time>
   </trkpt>
   <trkpt lat="53.3497320" lon="-6.2599050">
    <ele>6.9</ele>
    <time>2025-12-21T11:39:03Z</time>
   </trkpt>
   <trkpt lat="53.3496560" lon="-6.2598950">
    <ele>6.9</ele>
    <time>2025-12-21T11:39:08Z</time>
   </trkpt>
   <trkpt lat="53.3495950" lon="-6.2598770">
    <ele>6.8</ele>
    <time>2025-12-21T11:39:14Z</time>
   </trkpt>
   <trkpt lat="53.3496130" lon="-6.2597970">
    <ele>7.0</ele>
    <time>2025-12-21T11:39:39Z</time>
   </trkpt>
   <trkpt lat="53.3496450" lon="-6.2598670">
    <ele>7.0</ele>
    <time>2025-12-21T11:40:09Z</time>
   </trkpt>
   <trkpt lat="53.3496940" lon="-6.2598910">
    <ele>7.0</ele>
    <time>2025-12-21T11:40:27Z</time>
   </trkpt>
   <trkpt lat="53.3497520" lon="-6.2599440">
    <ele>7.0</ele>
    <time>2025-12-21T11:40:33Z</time>
   </trkpt>
   <trkpt lat="53.3497960" lon="-6.2599820">
    <ele>7.1</ele>
    <time>2025-12-21T11:40:39Z</time>
   </trkpt>
   <trkpt lat="53.3498400" lon="-6.2599670">
    <ele>7.0</ele>
    <time>2025-12-21T11:40:49Z</time>
   </trkpt>
   <trkpt lat="53.3498410" lon="-6.2601190">
    <ele>7.1</ele>
    <time>2025-12-21T11:40:55Z</time>
   </trkpt>
   <trkpt lat="53.3498070" lon="-6.2602470">
    <ele>7.2</ele>
    <time>2025-12-21T11:41:00Z</time>
   </trkpt>
   <trkpt lat="53.3497690" lon="-6.2603540">
    <ele>7.2</ele>
    <time>2025-12-21T11:41:06Z</time>
   </trkpt>
   <trkpt lat="53.3497400" lon="-6.2604850">
    <ele>7.2</ele>
    <time>2025-12-21T11:41:11Z</time>
   </trkpt>
   <trkpt lat="53.3497180" lon="-6.2605920">
    <ele>7.3</ele>
    <time>2025-12-21T11:41:17Z</time>
   </trkpt>
   <trkpt lat="53.3497160" lon="-6.2606960">
    <ele>7.2</ele>
    <time>2025-12-21T11:41:22Z</time>
   </trkpt>
   <trkpt lat="53.3496970" lon="-6.2608170">
    <ele>7.2</ele>
    <time>2025-12-21T11:41:27Z</time>
   </trkpt>
   <trkpt lat="53.3496950" lon="-6.2608990">
    <ele>7.2</ele>
    <time>2025-12-21T11:41:32Z</time>
   </trkpt>
   <trkpt lat="53.3496830" lon="-6.2610110">
    <ele>7.2</ele>
    <time>2025-12-21T11:41:38Z</time>
   </trkpt>
   <trkpt lat="53.3496820" lon="-6.2611170">
    <ele>7.3</ele>
    <time>2025-12-21T11:41:43Z</time>
   </trkpt>
   <trkpt lat="53.3496640" lon="-6.2612400">
    <ele>7.3</ele>
    <time>2025-12-21T11:41:48Z</time>
   </trkpt>
   <trkpt lat="53.3496530" lon="-6.2613180">
    <ele>7.4</ele>
    <time>2025-12-21T11:41:54Z</time>
   </trkpt>
   <trkpt lat="53.3496240" lon="-6.2613920">
    <ele>7.6</ele>
    <time>2025-12-21T11:42:02Z</time>
   </trkpt>
   <trkpt lat="53.3496100" lon="-6.2615040">
    <ele>7.7</ele>
    <time>2025-12-21T11:42:07Z</time>
   </trkpt>
   <trkpt lat="53.3495960" lon="-6.2616210">
    <ele>7.7</ele>
    <time>2025-12-21T11:42:12Z</time>
   </trkpt>
   <trkpt lat="53.3495710" lon="-6.2616990">
    <ele>7.7</ele>
    <time>2025-12-21T11:42:18Z</time>
   </trkpt>
   <trkpt lat="53.3495520" lon="-6.2618060">
    <ele>7.7</ele>
    <time>2025-12-21T11:42:23Z</time>
   </trkpt>
   <trkpt lat="53.3495270" lon="-6.2618900">
    <ele>7.7</ele>
    <time>2025-12-21T11:42:28Z</time>
   </trkpt>
   <trkpt lat="53.3495120" lon="-6.2619640">
    <ele>7.7</ele>
    <time>2025-12-21T11:42:35Z</time>
   </trkpt>
   <trkpt lat="53.3494950" lon="-6.2620380">
    <ele>7.8</ele>
    <time>2025-12-21T11:42:40Z</time>
   </trkpt>
   <trkpt lat="53.3494820" lon="-6.2621230">
    <ele>7.8</ele>
    <time>2025-12-21T11:42:46Z</time>
   </trkpt>
   <trkpt lat="53.3494660" lon="-6.2621960">
    <ele>7.9</ele>
    <time>2025-12-21T11:42:51Z</time>
   </trkpt>
   <trkpt lat="53.3494430" lon="-6.2622740">
    <ele>7.9</ele>
    <time>2025-12-21T11:43:01Z</time>
   </trkpt>
   <trkpt lat="53.3494440" lon="-6.2623880">
    <ele>7.9</ele>
    <time>2025-12-21T11:43:06Z</time>
   </trkpt>
   <trkpt lat="53.3494390" lon="-6.2624800">
    <ele>7.5</ele>
    <time>2025-12-21T11:43:12Z</time>
   </trkpt>
   <trkpt lat="53.3494270" lon="-6.2625690">
    <ele>7.3</ele>
    <time>2025-12-21T11:43:17Z</time>
   </trkpt>
   <trkpt lat="53.3494260" lon="-6.2626840">
    <ele>7.2</ele>
    <time>2025-12-21T11:43:23Z</time>
   </trkpt>
   <trkpt lat="53.3494380" lon="-6.2627900">
    <ele>7.2</ele>
    <time>2025-12-21T11:43:28Z</time>
   </trkpt>
   <trkpt lat="53.3494210" lon="-6.2629230">
    <ele>7.2</ele>
    <time>2025-12-21T11:43:34Z</time>
   </trkpt>
   <trkpt lat="53.3494020" lon="-6.2630230">
    <ele>7.2</ele>
    <time>2025-12-21T11:43:39Z</time>
   </trkpt>
   <trkpt lat="53.3493800" lon="-6.2631600">
    <ele>7.2</ele>
    <time>2025-12-21T11:43:45Z</time>
   </trkpt>
   <trkpt lat="53.3493650" lon="-6.2632810">
    <ele>7.2</ele>
    <time>2025-12-21T11:43:50Z</time>
   </trkpt>
   <trkpt lat="53.3493440" lon="-6.2633920">
    <ele>7.1</ele>
    <time>2025-12-21T11:43:55Z</time>
   </trkpt>
   <trkpt lat="53.3493260" lon="-6.2635300">
    <ele>7.0</ele>
    <time>2025-12-21T11:44:01Z</time>
   </trkpt>
   <trkpt lat="53.3493060" lon="-6.2636440">
    <ele>7.0</ele>
    <time>2025-12-21T11:44:06Z</time>
   </trkpt>
   <trkpt lat="53.3492840" lon="-6.2637670">
    <ele>7.0</ele>
    <time>2025-12-21T11:44:12Z</time>
   </trkpt>
   <trkpt lat="53.3492650" lon="-6.2638750">
    <ele>7.0</ele>
    <time>2025-12-21T11:44:17Z</time>
   </trkpt>
   <trkpt lat="53.3492500" lon="-6.2640060">
    <ele>7.0</ele>
    <time>2025-12-21T11:44:23Z</time>
   </trkpt>
   <trkpt lat="53.3492420" lon="-6.2641030">
    <ele>7.0</ele>
    <time>2025-12-21T11:44:28Z</time>
   </trkpt>
   <trkpt lat="53.3492220" lon="-6.2641780">
    <ele>7.1</ele>
    <time>2025-12-21T11:44:34Z</time>
   </trkpt>
   <trkpt lat="53.3492060" lon="-6.2642550">
    <ele>7.0</ele>
    <time>2025-12-21T11:44:42Z</time>
   </trkpt>
   <trkpt lat="53.3491810" lon="-6.2643230">
    <ele>7.0</ele>
    <time>2025-12-21T11:44:47Z</time>
   </trkpt>
   <trkpt lat="53.3491470" lon="-6.2644120">
    <ele>7.0</ele>
    <time>2025-12-21T11:44:52Z</time>
   </trkpt>
   <trkpt lat="53.3491370" lon="-6.2645220">
    <ele>7.0</ele>
    <time>2025-12-21T11:44:57Z</time>
   </trkpt>
   <trkpt lat="53.3490930" lon="-6.2645940">
    <ele>7.0</ele>
    <time>2025-12-21T11:45:02Z</time>
   </trkpt>
   <trkpt lat="53.3490800" lon="-6.2646920">
    <ele>7.0</ele>
    <time>2025-12-21T11:45:08Z</time>
   </trkpt>
   <trkpt lat="53.3490620" lon="-6.2647850">
    <ele>7.0</ele>
    <time>2025-12-21T11:45:13Z</time>
   </trkpt>
   <trkpt lat="53.3490300" lon="-6.2648880">
    <ele>6.9</ele>
    <time>2025-12-21T11:45:18Z</time>
   </trkpt>
   <trkpt lat="53.3483660" lon="-6.2641330">
    <ele>6.7</ele>
    <time>2025-12-21T11:49:07Z</time>
   </trkpt>
   <trkpt lat="53.3482920" lon="-6.2640320">
    <ele>6.7</ele>
    <time>2025-12-21T11:49:12Z</time>
   </trkpt>
   <trkpt lat="53.3482150" lon="-6.2639770">
    <ele>6.7</ele>
    <time>2025-12-21T11:49:17Z</time>
   </trkpt>
   <trkpt lat="53.3481280" lon="-6.2639270">
    <ele>6.7</ele>
    <time>2025-12-21T11:49:23Z</time>
   </trkpt>
   <trkpt lat="53.3480650" lon="-6.2638770">
    <ele>6.8</ele>
    <time>2025-12-21T11:49:28Z</time>
   </trkpt>
   <trkpt lat="53.3480180" lon="-6.2638260">
    <ele>6.6</ele>
    <time>2025-12-21T11:49:34Z</time>
   </trkpt>
   <trkpt lat="53.3479580" lon="-6.2637950">
    <ele>6.4</ele>
    <time>2025-12-21T11:49:39Z</time>
   </trkpt>
   <trkpt lat="53.3479370" lon="-6.2638650">
    <ele>6.2</ele>
    <time>2025-12-21T11:49:51Z</time>
   </trkpt>
   <trkpt lat="53.3478920" lon="-6.2638990">
    <ele>6.2</ele>
    <time>2025-12-21T11:49:57Z</time>
   </trkpt>
   <trkpt lat="53.3478450" lon="-6.2640330">
    <ele>6.2</ele>
    <time>2025-12-21T11:50:02Z</time>
   </trkpt>
   <trkpt lat="53.3478570" lon="-6.2641670">
    <ele>6.3</ele>
    <time>2025-12-21T11:50:08Z</time>
   </trkpt>
   <trkpt lat="53.3478500" lon="-6.2642730">
    <ele>6.3</ele>
    <time>2025-12-21T11:50:13Z</time>
   </trkpt>
   <trkpt lat="53.3478210" lon="-6.2643370">
    <ele>6.3</ele>
    <time>2025-12-21T11:50:19Z</time>
   </trkpt>
   <trkpt lat="53.3477720" lon="-6.2646200">
    <ele>6.2</ele>
    <time>2025-12-21T11:50:32Z</time>
   </trkpt>
   <trkpt lat="53.3477480" lon="-6.2647670">
    <ele>6.2</ele>
    <time>2025-12-21T11:50:37Z</time>
   </trkpt>
   <trkpt lat="53.3477170" lon="-6.2649050">
    <ele>6.0</ele>
    <time>2025-12-21T11:50:42Z</time>
   </trkpt>
   <trkpt lat="53.3476770" lon="-6.2650250">
    <ele>6.2</ele>
    <time>2025-12-21T11:50:48Z</time>
   </trkpt>
   <trkpt lat="53.3476770" lon="-6.2651300">
    <ele>6.3</ele>
    <time>2025-12-21T11:50:53Z</time>
   </trkpt>
   <trkpt lat="53.3476650" lon="-6.2652300">
    <ele>6.3</ele>
    <time>2025-12-21T11:50:58Z</time>
   </trkpt>
   <trkpt lat="53.3476570" lon="-6.2653490">
    <ele>6.2</ele>
    <time>2025-12-21T11:51:03Z</time>
   </trkpt>
   <trkpt lat="53.3476250" lon="-6.2654510">
    <ele>6.0</ele>
    <time>2025-12-21T11:51:09Z</time>
   </trkpt>
   <trkpt lat="53.3476200" lon="-6.2655330">
    <ele>6.0</ele>
    <time>2025-12-21T11:51:14Z</time>
   </trkpt>
   <trkpt lat="53.3476120" lon="-6.2656480">
    <ele>6.2</ele>
    <time>2025-12-21T11:51:20Z</time>
   </trkpt>
   <trkpt lat="53.3475780" lon="-6.2657720">
    <ele>6.0</ele>
    <time>2025-12-21T11:51:25Z</time>
   </trkpt>
   <trkpt lat="53.3475630" lon="-6.2658990">
    <ele>5.9</ele>
    <time>2025-12-21T11:51:31Z</time>
   </trkpt>
   <trkpt lat="53.3475450" lon="-6.2660270">
    <ele>5.9</ele>
    <time>2025-12-21T11:51:36Z</time>
   </trkpt>
   <trkpt lat="53.3475110" lon="-6.2661310">
    <ele>5.9</ele>
    <time>2025-12-21T11:51:42Z</time>
   </trkpt>
   <trkpt lat="53.3475310" lon="-6.2662070">
    <ele>5.7</ele>
    <time>2025-12-21T11:52:04Z</time>
   </trkpt>
   <trkpt lat="53.3475290" lon="-6.2663440">
    <ele>5.7</ele>
    <time>2025-12-21T11:52:09Z</time>
   </trkpt>
   <trkpt lat="53.3475030" lon="-6.2664570">
    <ele>5.5</ele>
    <time>2025-12-21T11:52:14Z</time>
   </trkpt>
   <trkpt lat="53.3474860" lon="-6.2665710">
    <ele>5.3</ele>
    <time>2025-12-21T11:52:19Z</time>
   </trkpt>
   <trkpt lat="53.3474660" lon="-6.2666880">
    <ele>5.2</ele>
    <time>2025-12-21T11:52:25Z</time>
   </trkpt>
   <trkpt lat="53.3474320" lon="-6.2668010">
    <ele>5.3</ele>
    <time>2025-12-21T11:52:30Z</time>
   </trkpt>
   <trkpt lat="53.3474360" lon="-6.2669350">
    <ele>5.4</ele>
    <time>2025-12-21T11:52:35Z</time>
   </trkpt>
   <trkpt lat="53.3474230" lon="-6.2670550">
    <ele>5.4</ele>
    <time>2025-12-21T11:52:40Z</time>
   </trkpt>
   <trkpt lat="53.3473850" lon="-6.2671830">
    <ele>5.5</ele>
    <time>2025-12-21T11:52:46Z</time>
   </trkpt>
   <trkpt lat="53.3473700" lon="-6.2672820">
    <ele>5.5</ele>
    <time>2025-12-21T11:52:51Z</time>
   </trkpt>
   <trkpt lat="53.3473580" lon="-6.2673880">
    <ele>5.4</ele>
    <time>2025-12-21T11:52:57Z</time>
   </trkpt>
   <trkpt lat="53.3473330" lon="-6.2674920">
    <ele>5.3</ele>
    <time>2025-12-21T11:53:02Z</time>
   </trkpt>
   <trkpt lat="53.3473150" lon="-6.2676380">
    <ele>5.3</ele>
    <time>2025-12-21T11:53:07Z</time>
   </trkpt>
   <trkpt lat="53.3472950" lon="-6.2677890">
    <ele>5.5</ele>
    <time>2025-12-21T11:53:13Z</time>
   </trkpt>
   <trkpt lat="53.3472880" lon="-6.2679040">
    <ele>5.5</ele>
    <time>2025-12-21T11:53:18Z</time>
   </trkpt>
   <trkpt lat="53.3472740" lon="-6.2680340">
    <ele>5.6</ele>
    <time>2025-12-21T11:53:23Z</time>
   </trkpt>
   <trkpt lat="53.3472640" lon="-6.2681990">
    <ele>5.7</ele>
    <time>2025-12-21T11:53:29Z</time>
   </trkpt>
   <trkpt lat="53.3472290" lon="-6.2682840">
    <ele>5.7</ele>
    <time>2025-12-21T11:53:34Z</time>
   </trkpt>
   <trkpt lat="53.3471630" lon="-6.2682400">
    <ele>5.7</ele>
    <time>2025-12-21T11:53:40Z</time>
   </trkpt>
   <trkpt lat="53.3470850" lon="-6.2681940">
    <ele>5.7</ele>
    <time>2025-12-21T11:53:45Z</time>
   </trkpt>
   <trkpt lat="53.3470120" lon="-6.2681730">
    <ele>5.7</ele>
    <time>2025-12-21T11:53:50Z</time>
   </trkpt>
   <trkpt lat="53.3470210" lon="-6.2680450">
    <ele>6.2</ele>
    <time>2025-12-21T11:59:40Z</time>
   </trkpt>
   <trkpt lat="53.3469640" lon="-6.2681240">
    <ele>6.1</ele>
    <time>2025-12-21T11:59:47Z</time>
   </trkpt>
   <trkpt lat="53.3468900" lon="-6.2681300">
    <ele>6.0</ele>
    <time>2025-12-21T11:59:52Z</time>
   </trkpt>
   <trkpt lat="53.3468060" lon="-6.2680900">
    <ele>6.0</ele>
    <time>2025-12-21T11:59:58Z</time>
   </trkpt>
   <trkpt lat="53.3467360" lon="-6.2680610">
    <ele>6.0</ele>
    <time>2025-12-21T12:00:03Z</time>
   </trkpt>
   <trkpt lat="53.3466560" lon="-6.2680390">
    <ele>6.1</ele>
    <time>2025-12-21T12:00:08Z</time>
   </trkpt>
   <trkpt lat="53.3465780" lon="-6.2680130">
    <ele>6.0</ele>
    <time>2025-12-21T12:00:14Z</time>
   </trkpt>
   <trkpt lat="53.3465030" lon="-6.2679560">
    <ele>6.0</ele>
    <time>2025-12-21T12:00:19Z</time>
   </trkpt>
   <trkpt lat="53.3464530" lon="-6.2679340">
    <ele>6.1</ele>
    <time>2025-12-21T12:00:25Z</time>
   </trkpt>
   <trkpt lat="53.3463970" lon="-6.2679220">
    <ele>6.2</ele>
    <time>2025-12-21T12:00:30Z</time>
   </trkpt>
   <trkpt lat="53.3463150" lon="-6.2678970">
    <ele>6.3</ele>
    <time>2025-12-21T12:00:36Z</time>
   </trkpt>
   <trkpt lat="53.3462410" lon="-6.2678660">
    <ele>6.3</ele>
    <time>2025-12-21T12:00:41Z</time>
   </trkpt>
   <trkpt lat="53.3461760" lon="-6.2678450">
    <ele>6.3</ele>
    <time>2025-12-21T12:00:46Z</time>
   </trkpt>
   <trkpt lat="53.3461400" lon="-6.2677910">
    <ele>6.4</ele>
    <time>2025-12-21T12:00:52Z</time>
   </trkpt>
   <trkpt lat="53.3461810" lon="-6.2677500">
    <ele>6.6</ele>
    <time>2025-12-21T12:01:14Z</time>
   </trkpt>
   <trkpt lat="53.3461450" lon="-6.2677000">
    <ele>6.7</ele>
    <time>2025-12-21T12:02:00Z</time>
   </trkpt>
   <trkpt lat="53.3460920" lon="-6.2676930">
    <ele>6.7</ele>
    <time>2025-12-21T12:02:05Z</time>
   </trkpt>
   <trkpt lat="53.3460250" lon="-6.2676570">
    <ele>6.8</ele>
    <time>2025-12-21T12:02:11Z</time>
   </trkpt>
   <trkpt lat="53.3459740" lon="-6.2676680">
    <ele>7.4</ele>
    <time>2025-12-21T12:02:23Z</time>
   </trkpt>
   <trkpt lat="53.3458860" lon="-6.2676700">
    <ele>7.4</ele>
    <time>2025-12-21T12:02:28Z</time>
   </trkpt>
   <trkpt lat="53.3458070" lon="-6.2676700">
    <ele>7.5</ele>
    <time>2025-12-21T12:02:34Z</time>
   </trkpt>
   <trkpt lat="53.3457270" lon="-6.2676250">
    <ele>7.5</ele>
    <time>2025-12-21T12:02:39Z</time>
   </trkpt>
   <trkpt lat="53.3456540" lon="-6.2676060">
    <ele>7.5</ele>
    <time>2025-12-21T12:02:45Z</time>
   </trkpt>
   <trkpt lat="53.3455800" lon="-6.2675920">
    <ele>7.5</ele>
    <time>2025-12-21T12:02:50Z</time>
   </trkpt>
   <trkpt lat="53.3455030" lon="-6.2675650">
    <ele>7.6</ele>
    <time>2025-12-21T12:02:56Z</time>
   </trkpt>
   <trkpt lat="53.3454340" lon="-6.2675270">
    <ele>7.8</ele>
    <time>2025-12-21T12:03:01Z</time>
   </trkpt>
   <trkpt lat="53.3454240" lon="-6.2674510">
    <ele>7.9</ele>
    <time>2025-12-21T12:03:07Z</time>
   </trkpt>
   <trkpt lat="53.3453720" lon="-6.2674610">
    <ele>8.1</ele>
    <time>2025-12-21T12:03:23Z</time>
   </trkpt>
   <trkpt lat="53.3453150" lon="-6.2675280">
    <ele>8.1</ele>
    <time>2025-12-21T12:03:28Z</time>
   </trkpt>
   <trkpt lat="53.3452310" lon="-6.2675020">
    <ele>8.1</ele>
    <time>2025-12-21T12:03:33Z</time>
   </trkpt>
   <trkpt lat="53.3451730" lon="-6.2674770">
    <ele>8.1</ele>
    <time>2025-12-21T12:03:38Z</time>
   </trkpt>
   <trkpt lat="53.3450990" lon="-6.2674620">
    <ele>7.9</ele>
    <time>2025-12-21T12:03:43Z</time>
   </trkpt>
   <trkpt lat="53.3450250" lon="-6.2674400">
    <ele>7.8</ele>
    <time>2025-12-21T12:03:49Z</time>
   </trkpt>
   <trkpt lat="53.3449790" lon="-6.2674210">
    <ele>7.7</ele>
    <time>2025-12-21T12:03:57Z</time>
   </trkpt>
   <trkpt lat="53.3449070" lon="-6.2674150">
    <ele>7.7</ele>
    <time>2025-12-21T12:04:02Z</time>
   </trkpt>
   <trkpt lat="53.3448470" lon="-6.2673880">
    <ele>7.7</ele>
    <time>2025-12-21T12:04:07Z</time>
   </trkpt>
   <trkpt lat="53.3447840" lon="-6.2673890">
    <ele>7.8</ele>
    <time>2025-12-21T12:04:12Z</time>
   </trkpt>
   <trkpt lat="53.3447080" lon="-6.2673510">
    <ele>7.9</ele>
    <time>2025-12-21T12:04:18Z</time>
   </trkpt>
   <trkpt lat="53.3446520" lon="-6.2673340">
    <ele>8.0</ele>
    <time>2025-12-21T12:04:23Z</time>
   </trkpt>
   <trkpt lat="53.3445900" lon="-6.2673050">
    <ele>8.1</ele>
    <time>2025-12-21T12:04:28Z</time>
   </trkpt>
   <trkpt lat="53.3445120" lon="-6.2672740">
    <ele>8.4</ele>
    <time>2025-12-21T12:04:34Z</time>
   </trkpt>
   <trkpt lat="53.3444400" lon="-6.2672590">
    <ele>8.5</ele>
    <time>2025-12-21T12:04:39Z</time>
   </trkpt>
   <trkpt lat="53.3443820" lon="-6.2672390">
    <ele>8.6</ele>
    <time>2025-12-21T12:04:44Z</time>
   </trkpt>
   <trkpt lat="53.3443130" lon="-6.2672140">
    <ele>9.0</ele>
    <time>2025-12-21T12:04:50Z</time>
   </trkpt>
   <trkpt lat="53.3442340" lon="-6.2671910">
    <ele>9.1</ele>
    <time>2025-12-21T12:04:55Z</time>
   </trkpt>
   <trkpt lat="53.3441780" lon="-6.2671530">
    <ele>9.2</ele>
    <time>2025-12-21T12:05:00Z</time>
   </trkpt>
   <trkpt lat="53.3441260" lon="-6.2671390">
    <ele>9.2</ele>
    <time>2025-12-21T12:05:06Z</time>
   </trkpt>
   <trkpt lat="53.3440790" lon="-6.2670410">
    <ele>9.2</ele>
    <time>2025-12-21T12:05:11Z</time>
   </trkpt>
   <trkpt lat="53.3440860" lon="-6.2669370">
    <ele>9.2</ele>
    <time>2025-12-21T12:05:17Z</time>
   </trkpt>
   <trkpt lat="53.3440850" lon="-6.2668510">
    <ele>9.1</ele>
    <time>2025-12-21T12:05:22Z</time>
   </trkpt>
   <trkpt lat="53.3440530" lon="-6.2667970">
    <ele>8.6</ele>
    <time>2025-12-21T12:06:33Z</time>
   </trkpt>
   <trkpt lat="53.3440790" lon="-6.2667240">
    <ele>8.6</ele>
    <time>2025-12-21T12:06:42Z</time>
   </trkpt>
   <trkpt lat="53.3440930" lon="-6.2666360">
    <ele>8.5</ele>
    <time>2025-12-21T12:06:47Z</time>
   </trkpt>
   <trkpt lat="53.3440840" lon="-6.2665300">
    <ele>8.4</ele>
    <time>2025-12-21T12:06:52Z</time>
   </trkpt>
   <trkpt lat="53.3440790" lon="-6.2664260">
    <ele>8.1</ele>
    <time>2025-12-21T12:06:57Z</time>
   </trkpt>
   <trkpt lat="53.3440920" lon="-6.2663320">
    <ele>8.0</ele>
    <time>2025-12-21T12:07:03Z</time>
   </trkpt>
   <trkpt lat="53.3440860" lon="-6.2662080">
    <ele>8.0</ele>
    <time>2025-12-21T12:07:08Z</time>
   </trkpt>
   <trkpt lat="53.3440250" lon="-6.2661740">
    <ele>8.0</ele>
    <time>2025-12-21T12:07:13Z</time>
   </trkpt>
   <trkpt lat="53.3439480" lon="-6.2661790">
    <ele>8.1</ele>
    <time>2025-12-21T12:07:18Z</time>
   </trkpt>
   <trkpt lat="53.3438840" lon="-6.2661150">
    <ele>8.1</ele>
    <time>2025-12-21T12:07:24Z</time>
   </trkpt>
   <trkpt lat="53.3438690" lon="-6.2659750">
    <ele>8.1</ele>
    <time>2025-12-21T12:07:29Z</time>
   </trkpt>
   <trkpt lat="53.3438700" lon="-6.2658470">
    <ele>8.2</ele>
    <time>2025-12-21T12:07:34Z</time>
   </trkpt>
   <trkpt lat="53.3438770" lon="-6.2657370">
    <ele>8.4</ele>
    <time>2025-12-21T12:07:40Z</time>
   </trkpt>
   <trkpt lat="53.3438720" lon="-6.2656070">
    <ele>8.6</ele>
    <time>2025-12-21T12:07:45Z</time>
   </trkpt>
   <trkpt lat="53.3438660" lon="-6.2654870">
    <ele>8.5</ele>
    <time>2025-12-21T12:07:51Z</time>
   </trkpt>
   <trkpt lat="53.3438690" lon="-6.2653680">
    <ele>8.3</ele>
    <time>2025-12-21T12:07:56Z</time>
   </trkpt>
   <trkpt lat="53.3438670" lon="-6.2652220">
    <ele>8.8</ele>
    <time>2025-12-21T12:08:01Z</time>
   </trkpt>
   <trkpt lat="53.3438510" lon="-6.2650820">
    <ele>9.2</ele>
    <time>2025-12-21T12:08:06Z</time>
   </trkpt>
   <trkpt lat="53.3435860" lon="-6.2644810">
    <ele>12.7</ele>
    <time>2025-12-21T12:08:47Z</time>
   </trkpt>
   <trkpt lat="53.3435310" lon="-6.2644990">
    <ele>12.2</ele>
    <time>2025-12-21T12:08:52Z</time>
   </trkpt>
   <trkpt lat="53.3434680" lon="-6.2645320">
    <ele>11.7</ele>
    <time>2025-12-21T12:08:57Z</time>
   </trkpt>
   <trkpt lat="53.3433910" lon="-6.2645270">
    <ele>11.7</ele>
    <time>2025-12-21T12:09:03Z</time>
   </trkpt>
   <trkpt lat="53.3433130" lon="-6.2644890">
    <ele>11.9</ele>
    <time>2025-12-21T12:09:08Z</time>
   </trkpt>
   <trkpt lat="53.3432460" lon="-6.2644660">
    <ele>11.9</ele>
    <time>2025-12-21T12:09:13Z</time>
   </trkpt>
   <trkpt lat="53.3431720" lon="-6.2644740">
    <ele>12.0</ele>
    <time>2025-12-21T12:09:19Z</time>
   </trkpt>
   <trkpt lat="53.3431030" lon="-6.2644830">
    <ele>12.2</ele>
    <time>2025-12-21T12:09:24Z</time>
   </trkpt>
   <trkpt lat="53.3430270" lon="-6.2644760">
    <ele>12.2</ele>
    <time>2025-12-21T12:09:30Z</time>
   </trkpt>
   <trkpt lat="53.3430560" lon="-6.2644120">
    <ele>12.2</ele>
    <time>2025-12-21T12:09:52Z</time>
   </trkpt>
   <trkpt lat="53.3430530" lon="-6.2645210">
    <ele>12.3</ele>
    <time>2025-12-21T12:09:57Z</time>
   </trkpt>
   <trkpt lat="53.3430510" lon="-6.2643560">
    <ele>12.3</ele>
    <time>2025-12-21T12:10:02Z</time>
   </trkpt>
   <trkpt lat="53.3430580" lon="-6.2642300">
    <ele>12.3</ele>
    <time>2025-12-21T12:10:07Z</time>
   </trkpt>
   <trkpt lat="53.3430560" lon="-6.2641190">
    <ele>12.3</ele>
    <time>2025-12-21T12:10:13Z</time>
   </trkpt>
   <trkpt lat="53.3430610" lon="-6.2639990">
    <ele>12.3</ele>
    <time>2025-12-21T12:10:18Z</time>
   </trkpt>
   <trkpt lat="53.3430640" lon="-6.2638350">
    <ele>12.3</ele>
    <time>2025-12-21T12:10:24Z</time>
   </trkpt>
   <trkpt lat="53.3430830" lon="-6.2637190">
    <ele>12.2</ele>
    <time>2025-12-21T12:10:30Z</time>
   </trkpt>
   <trkpt lat="53.3430720" lon="-6.2636120">
    <ele>12.1</ele>
    <time>2025-12-21T12:10:35Z</time>
   </trkpt>
   <trkpt lat="53.3430770" lon="-6.2635040">
    <ele>12.1</ele>
    <time>2025-12-21T12:10:41Z</time>
   </trkpt>
   <trkpt lat="53.3431000" lon="-6.2634230">
    <ele>12.0</ele>
    <time>2025-12-21T12:10:46Z</time>
   </trkpt>
   <trkpt lat="53.3431220" lon="-6.2633390">
    <ele>11.9</ele>
    <time>2025-12-21T12:11:12Z</time>
   </trkpt>
   <trkpt lat="53.3431800" lon="-6.2632440">
    <ele>11.9</ele>
    <time>2025-12-21T12:11:18Z</time>
   </trkpt>
   <trkpt lat="53.3431830" lon="-6.2631660">
    <ele>11.9</ele>
    <time>2025-12-21T12:13:17Z</time>
   </trkpt>
   <trkpt lat="53.3431600" lon="-6.2632710">
    <ele>11.9</ele>
    <time>2025-12-21T12:13:33Z</time>
   </trkpt>
   <trkpt lat="53.3431580" lon="-6.2631570">
    <ele>11.9</ele>
    <time>2025-12-21T12:14:07Z</time>
   </trkpt>
   <trkpt lat="53.3431110" lon="-6.2631500">
    <ele>11.9</ele>
    <time>2025-12-21T12:14:43Z</time>
   </trkpt>
   <trkpt lat="53.3429670" lon="-6.2631500">
    <ele>11.9</ele>
    <time>2025-12-21T12:14:48Z</time>
   </trkpt>
   <trkpt lat="53.3430100" lon="-6.2631850">
    <ele>11.9</ele>
    <time>2025-12-21T12:14:55Z</time>
   </trkpt>
   <trkpt lat="53.3430980" lon="-6.2632390">
    <ele>11.9</ele>
    <time>2025-12-21T12:15:32Z</time>
   </trkpt>
   <trkpt lat="53.3431250" lon="-6.2633020">
    <ele>11.9</ele>
    <time>2025-12-21T12:15:40Z</time>
   </trkpt>
   <trkpt lat="53.3431780" lon="-6.2632940">
    <ele>11.9</ele>
    <time>2025-12-21T12:16:09Z</time>
   </trkpt>
   <trkpt lat="53.3431770" lon="-6.2631750">
    <ele>11.9</ele>
    <time>2025-12-21T12:16:56Z</time>
   </trkpt>
   <trkpt lat="53.3431420" lon="-6.2632250">
    <ele>11.9</ele>
    <time>2025-12-21T12:17:32Z</time>
   </trkpt>
   <trkpt lat="53.3431740" lon="-6.2631470">
    <ele>11.9</ele>
    <time>2025-12-21T12:17:37Z</time>
   </trkpt>
   <trkpt lat="53.3431690" lon="-6.2632460">
    <ele>11.9</ele>
    <time>2025-12-21T12:20:38Z</time>
   </trkpt>
   <trkpt lat="53.3431540" lon="-6.2633520">
    <ele>11.9</ele>
    <time>2025-12-21T12:31:31Z</time>
   </trkpt>
   <trkpt lat="53.3431070" lon="-6.2633120">
    <ele>11.9</ele>
    <time>2025-12-21T12:31:36Z</time>
   </trkpt>
   <trkpt lat="53.3430920" lon="-6.2632380">
    <ele>11.9</ele>
    <time>2025-12-21T12:31:47Z</time>
   </trkpt>
   <trkpt lat="53.3430950" lon="-6.2631590">
    <ele>11.9</ele>
    <time>2025-12-21T12:31:52Z</time>
   </trkpt>
   <trkpt lat="53.3430870" lon="-6.2630840">
    <ele>11.8</ele>
    <time>2025-12-21T12:32:01Z</time>
   </trkpt>
   <trkpt lat="53.3430840" lon="-6.2630010">
    <ele>11.8</ele>
    <time>2025-12-21T12:32:06Z</time>
   </trkpt>
   <trkpt lat="53.3430710" lon="-6.2629060">
    <ele>11.7</ele>
    <time>2025-12-21T12:32:11Z</time>
   </trkpt>
   <trkpt lat="53.3430620" lon="-6.2628270">
    <ele>11.6</ele>
    <time>2025-12-21T12:32:16Z</time>
   </trkpt>
   <trkpt lat="53.3430250" lon="-6.2627460">
    <ele>11.6</ele>
    <time>2025-12-21T12:32:21Z</time>
   </trkpt>
   <trkpt lat="53.3430210" lon="-6.2626110">
    <ele>11.6</ele>
    <time>2025-12-21T12:32:27Z</time>
   </trkpt>
   <trkpt lat="53.3430250" lon="-6.2624920">
    <ele>11.5</ele>
    <time>2025-12-21T12:32:33Z</time>
   </trkpt>
   <trkpt lat="53.3430260" lon="-6.2623590">
    <ele>11.5</ele>
    <time>2025-12-21T12:32:38Z</time>
   </trkpt>
   <trkpt lat="53.3430230" lon="-6.2622650">
    <ele>11.4</ele>
    <time>2025-12-21T12:32:43Z</time>
   </trkpt>
   <trkpt lat="53.3430230" lon="-6.2621530">
    <ele>11.3</ele>
    <time>2025-12-21T12:32:49Z</time>
   </trkpt>
   <trkpt lat="53.3430190" lon="-6.2620420">
    <ele>11.3</ele>
    <time>2025-12-21T12:32:54Z</time>
   </trkpt>
   <trkpt lat="53.3430380" lon="-6.2619710">
    <ele>11.3</ele>
    <time>2025-12-21T12:33:01Z</time>
   </trkpt>
   <trkpt lat="53.3430310" lon="-6.2618420">
    <ele>11.2</ele>
    <time>2025-12-21T12:33:07Z</time>
   </trkpt>
   <trkpt lat="53.3430250" lon="-6.2617420">
    <ele>11.1</ele>
    <time>2025-12-21T12:33:12Z</time>
   </trkpt>
   <trkpt lat="53.3430220" lon="-6.2616270">
    <ele>11.0</ele>
    <time>2025-12-21T12:33:17Z</time>
   </trkpt>
   <trkpt lat="53.3430120" lon="-6.2615030">
    <ele>10.8</ele>
    <time>2025-12-21T12:33:23Z</time>
   </trkpt>
   <trkpt lat="53.3429980" lon="-6.2613830">
    <ele>10.6</ele>
    <time>2025-12-21T12:33:28Z</time>
   </trkpt>
   <trkpt lat="53.3429870" lon="-6.2612770">
    <ele>10.5</ele>
    <time>2025-12-21T12:33:33Z</time>
   </trkpt>
   <trkpt lat="53.3429830" lon="-6.2611850">
    <ele>10.4</ele>
    <time>2025-12-21T12:33:39Z</time>
   </trkpt>
   <trkpt lat="53.3429590" lon="-6.2610650">
    <ele>10.3</ele>
    <time>2025-12-21T12:33:44Z</time>
   </trkpt>
   <trkpt lat="53.3429400" lon="-6.2609640">
    <ele>10.1</ele>
    <time>2025-12-21T12:33:50Z</time>
   </trkpt>
   <trkpt lat="53.3429040" lon="-6.2608820">
    <ele>10.0</ele>
    <time>2025-12-21T12:33:55Z</time>
   </trkpt>
   <trkpt lat="53.3428780" lon="-6.2607880">
    <ele>9.9</ele>
    <time>2025-12-21T12:34:01Z</time>
   </trkpt>
   <trkpt lat="53.3428440" lon="-6.2607300">
    <ele>9.7</ele>
    <time>2025-12-21T12:34:08Z</time>
   </trkpt>
   <trkpt lat="53.3428320" lon="-6.2606440">
    <ele>9.7</ele>
    <time>2025-12-21T12:34:13Z</time>
   </trkpt>
   <trkpt lat="53.3428170" lon="-6.2605470">
    <ele>9.9</ele>
    <time>2025-12-21T12:34:19Z</time>
   </trkpt>
   <trkpt lat="53.3427850" lon="-6.2604310">
    <ele>9.8</ele>
    <time>2025-12-21T12:34:24Z</time>
   </trkpt>
   <trkpt lat="53.3427690" lon="-6.2603000">
    <ele>10.0</ele>
    <time>2025-12-21T12:34:30Z</time>
   </trkpt>
   <trkpt lat="53.3427470" lon="-6.2601540">
    <ele>10.0</ele>
    <time>2025-12-21T12:34:35Z</time>
   </trkpt>
   <trkpt lat="53.3427250" lon="-6.2600320">
    <ele>9.9</ele>
    <time>2025-12-21T12:34:41Z</time>
   </trkpt>
   <trkpt lat="53.3427020" lon="-6.2599260">
    <ele>9.8</ele>
    <time>2025-12-21T12:34:46Z</time>
   </trkpt>
   <trkpt lat="53.3426730" lon="-6.2598180">
    <ele>9.8</ele>
    <time>2025-12-21T12:34:51Z</time>
   </trkpt>
   <trkpt lat="53.3426480" lon="-6.2597060">
    <ele>9.8</ele>
    <time>2025-12-21T12:34:57Z</time>
   </trkpt>
   <trkpt lat="53.3425970" lon="-6.2596990">
    <ele>9.9</ele>
    <time>2025-12-21T12:35:04Z</time>
   </trkpt>
   <trkpt lat="53.3425230" lon="-6.2597040">
    <ele>10.0</ele>
    <time>2025-12-21T12:35:09Z</time>
   </trkpt>
   <trkpt lat="53.3424690" lon="-6.2597170">
    <ele>10.1</ele>
    <time>2025-12-21T12:35:14Z</time>
   </trkpt>
   <trkpt lat="53.3424200" lon="-6.2597070">
    <ele>10.1</ele>
    <time>2025-12-21T12:35:20Z</time>
   </trkpt>
   <trkpt lat="53.3423860" lon="-6.2596530">
    <ele>10.2</ele>
    <time>2025-12-21T12:35:28Z</time>
   </trkpt>
   <trkpt lat="53.3422010" lon="-6.2596730">
    <ele>10.4</ele>
    <time>2025-12-21T12:47:45Z</time>
   </trkpt>
   <trkpt lat="53.3422560" lon="-6.2597120">
    <ele>10.4</ele>
    <time>2025-12-21T12:47:50Z</time>
   </trkpt>
   <trkpt lat="53.3422990" lon="-6.2597390">
    <ele>10.4</ele>
    <time>2025-12-21T12:48:05Z</time>
   </trkpt>
   <trkpt lat="53.3423600" lon="-6.2596770">
    <ele>10.2</ele>
    <time>2025-12-21T12:48:10Z</time>
   </trkpt>
   <trkpt lat="53.3424250" lon="-6.2596310">
    <ele>10.1</ele>
    <time>2025-12-21T12:48:15Z</time>
   </trkpt>
   <trkpt lat="53.3424840" lon="-6.2596100">
    <ele>10.0</ele>
    <time>2025-12-21T12:48:20Z</time>
   </trkpt>
   <trkpt lat="53.3425640" lon="-6.2595670">
    <ele>10.0</ele>
    <time>2025-12-21T12:48:26Z</time>
   </trkpt>
   <trkpt lat="53.3426480" lon="-6.2595440">
    <ele>9.9</ele>
    <time>2025-12-21T12:48:31Z</time>
   </trkpt>
   <trkpt lat="53.3426990" lon="-6.2595200">
    <ele>9.9</ele>
    <time>2025-12-21T12:48:36Z</time>
   </trkpt>
   <trkpt lat="53.3427690" lon="-6.2595030">
    <ele>9.8</ele>
    <time>2025-12-21T12:48:42Z</time>
   </trkpt>
   <trkpt lat="53.3428100" lon="-6.2594520">
    <ele>9.6</ele>
    <time>2025-12-21T12:48:49Z</time>
   </trkpt>
   <trkpt lat="53.3428670" lon="-6.2594240">
    <ele>9.5</ele>
    <time>2025-12-21T12:48:54Z</time>
   </trkpt>
   <trkpt lat="53.3429250" lon="-6.2594430">
    <ele>9.5</ele>
    <time>2025-12-21T12:48:59Z</time>
   </trkpt>
   <trkpt lat="53.3430160" lon="-6.2594510">
    <ele>9.4</ele>
    <time>2025-12-21T12:49:04Z</time>
   </trkpt>
   <trkpt lat="53.3431000" lon="-6.2594160">
    <ele>9.4</ele>
    <time>2025-12-21T12:49:10Z</time>
   </trkpt>
   <trkpt lat="53.3431800" lon="-6.2593750">
    <ele>9.4</ele>
    <time>2025-12-21T12:49:15Z</time>
   </trkpt>
   <trkpt lat="53.3432450" lon="-6.2593780">
    <ele>9.3</ele>
    <time>2025-12-21T12:49:21Z</time>
   </trkpt>
   <trkpt lat="53.3433110" lon="-6.2593910">
    <ele>9.2</ele>
    <time>2025-12-21T12:49:26Z</time>
   </trkpt>
   <trkpt lat="53.3433580" lon="-6.2593860">
    <ele>9.2</ele>
    <time>2025-12-21T12:49:33Z</time>
   </trkpt>
   <trkpt lat="53.3434040" lon="-6.2593560">
    <ele>9.2</ele>
    <time>2025-12-21T12:49:38Z</time>
   </trkpt>
   <trkpt lat="53.3435060" lon="-6.2593710">
    <ele>8.7</ele>
    <time>2025-12-21T12:49:43Z</time>
   </trkpt>
   <trkpt lat="53.3435800" lon="-6.2593710">
    <ele>8.4</ele>
    <time>2025-12-21T12:49:48Z</time>
   </trkpt>
   <trkpt lat="53.3436560" lon="-6.2593820">
    <ele>8.2</ele>
    <time>2025-12-21T12:49:53Z</time>
   </trkpt>
   <trkpt lat="53.3437200" lon="-6.2593400">
    <ele>8.1</ele>
    <time>2025-12-21T12:49:59Z</time>
   </trkpt>
   <trkpt lat="53.3437940" lon="-6.2593340">
    <ele>8.1</ele>
    <time>2025-12-21T12:50:04Z</time>
   </trkpt>
   <trkpt lat="53.3438810" lon="-6.2592840">
    <ele>8.1</ele>
    <time>2025-12-21T12:50:09Z</time>
   </trkpt>
   <trkpt lat="53.3439510" lon="-6.2592730">
    <ele>8.0</ele>
    <time>2025-12-21T12:50:15Z</time>
   </trkpt>
   <trkpt lat="53.3440250" lon="-6.2592740">
    <ele>7.7</ele>
    <time>2025-12-21T12:50:20Z</time>
   </trkpt>
   <trkpt lat="53.3440950" lon="-6.2592760">
    <ele>7.4</ele>
    <time>2025-12-21T12:50:26Z</time>
   </trkpt>
   <trkpt lat="53.3441470" lon="-6.2592660">
    <ele>7.3</ele>
    <time>2025-12-21T12:50:31Z</time>
   </trkpt>
   <trkpt lat="53.3442040" lon="-6.2593170">
    <ele>7.1</ele>
    <time>2025-12-21T12:50:36Z</time>
   </trkpt>
   <trkpt lat="53.3442770" lon="-6.2593770">
    <ele>7.0</ele>
    <time>2025-12-21T12:50:42Z</time>
   </trkpt>
   <trkpt lat="53.3443360" lon="-6.2594300">
    <ele>6.9</ele>
    <time>2025-12-21T12:50:47Z</time>
   </trkpt>
   <trkpt lat="53.3443950" lon="-6.2594560">
    <ele>6.9</ele>
    <time>2025-12-21T12:50:52Z</time>
   </trkpt>
   <trkpt lat="53.3444350" lon="-6.2594930">
    <ele>6.9</ele>
    <time>2025-12-21T12:50:58Z</time>
   </trkpt>
   <trkpt lat="53.3444790" lon="-6.2595070">
    <ele>6.9</ele>
    <time>2025-12-21T12:51:03Z</time>
   </trkpt>
   <trkpt lat="53.3445440" lon="-6.2594100">
    <ele>6.9</ele>
    <time>2025-12-21T12:51:08Z</time>
   </trkpt>
   <trkpt lat="53.3445980" lon="-6.2593250">
    <ele>6.9</ele>
    <time>2025-12-21T12:51:14Z</time>
   </trkpt>
   <trkpt lat="53.3446510" lon="-6.2592760">
    <ele>6.9</ele>
    <time>2025-12-21T12:51:19Z</time>
   </trkpt>
   <trkpt lat="53.3447130" lon="-6.2592680">
    <ele>6.9</ele>
    <time>2025-12-21T12:51:24Z</time>
   </trkpt>
   <trkpt lat="53.3447520" lon="-6.2592030">
    <ele>6.9</ele>
    <time>2025-12-21T12:51:30Z</time>
   </trkpt>
   <trkpt lat="53.3448220" lon="-6.2591630">
    <ele>6.9</ele>
    <time>2025-12-21T12:51:35Z</time>
   </trkpt>
   <trkpt lat="53.3449060" lon="-6.2590960">
    <ele>7.0</ele>
    <time>2025-12-21T12:51:41Z</time>
   </trkpt>
   <trkpt lat="53.3449820" lon="-6.2590630">
    <ele>7.0</ele>
    <time>2025-12-21T12:51:46Z</time>
   </trkpt>
   <trkpt lat="53.3450720" lon="-6.2590360">
    <ele>7.0</ele>
    <time>2025-12-21T12:51:52Z</time>
   </trkpt>
   <trkpt lat="53.3451540" lon="-6.2590400">
    <ele>7.0</ele>
    <time>2025-12-21T12:51:57Z</time>
   </trkpt>
   <trkpt lat="53.3452270" lon="-6.2590360">
    <ele>7.0</ele>
    <time>2025-12-21T12:52:02Z</time>
   </trkpt>
   <trkpt lat="53.3452670" lon="-6.2589880">
    <ele>6.7</ele>
    <time>2025-12-21T12:52:28Z</time>
   </trkpt>
   <trkpt lat="53.3453080" lon="-6.2590190">
    <ele>6.7</ele>
    <time>2025-12-21T12:52:36Z</time>
   </trkpt>
   <trkpt lat="53.3453990" lon="-6.2590300">
    <ele>6.8</ele>
    <time>2025-12-21T12:52:42Z</time>
   </trkpt>
   <trkpt lat="53.3454740" lon="-6.2590370">
    <ele>6.9</ele>
    <time>2025-12-21T12:52:47Z</time>
   </trkpt>
   <trkpt lat="53.3455530" lon="-6.2589510">
    <ele>7.0</ele>
    <time>2025-12-21T12:52:52Z</time>
   </trkpt>
   <trkpt lat="53.3456340" lon="-6.2589800">
    <ele>7.0</ele>
    <time>2025-12-21T12:52:57Z</time>
   </trkpt>
   <trkpt lat="53.3457190" lon="-6.2589790">
    <ele>7.0</ele>
    <time>2025-12-21T12:53:03Z</time>
   </trkpt>
   <trkpt lat="53.3458070" lon="-6.2589720">
    <ele>7.1</ele>
    <time>2025-12-21T12:53:08Z</time>
   </trkpt>
   <trkpt lat="53.3458650" lon="-6.2589890">
    <ele>7.1</ele>
    <time>2025-12-21T12:53:13Z</time>
   </trkpt>
   <trkpt lat="53.3459380" lon="-6.2589840">
    <ele>7.2</ele>
    <time>2025-12-21T12:53:19Z</time>
   </trkpt>
   <trkpt lat="53.3460090" lon="-6.2589800">
    <ele>7.2</ele>
    <time>2025-12-21T12:53:24Z</time>
   </trkpt>
   <trkpt lat="53.3460670" lon="-6.2589790">
    <ele>7.2</ele>
    <time>2025-12-21T12:53:29Z</time>
   </trkpt>
   <trkpt lat="53.3461360" lon="-6.2589850">
    <ele>7.2</ele>
    <time>2025-12-21T12:53:35Z</time>
   </trkpt>
   <trkpt lat="53.3462070" lon="-6.2589900">
    <ele>7.2</ele>
    <time>2025-12-21T12:53:40Z</time>
   </trkpt>
   <trkpt lat="53.3462850" lon="-6.2590170">
    <ele>7.2</ele>
    <time>2025-12-21T12:53:45Z</time>
   </trkpt>
   <trkpt lat="53.3463650" lon="-6.2590330">
    <ele>7.3</ele>
    <time>2025-12-21T12:53:51Z</time>
   </trkpt>
   <trkpt lat="53.3464440" lon="-6.2589900">
    <ele>7.3</ele>
    <time>2025-12-21T12:53:56Z</time>
   </trkpt>
   <trkpt lat="53.3465170" lon="-6.2589760">
    <ele>7.4</ele>
    <time>2025-12-21T12:54:01Z</time>
   </trkpt>
   <trkpt lat="53.3465960" lon="-6.2589840">
    <ele>7.4</ele>
    <time>2025-12-21T12:54:07Z</time>
   </trkpt>
   <trkpt lat="53.3466840" lon="-6.2589930">
    <ele>7.4</ele>
    <time>2025-12-21T12:54:12Z</time>
   </trkpt>
   <trkpt lat="53.3467350" lon="-6.2590090">
    <ele>7.4</ele>
    <time>2025-12-21T12:54:17Z</time>
   </trkpt>
   <trkpt lat="53.3467880" lon="-6.2589950">
    <ele>6.8</ele>
    <time>2025-12-21T12:54:28Z</time>
   </trkpt>
   <trkpt lat="53.3468620" lon="-6.2589670">
    <ele>6.8</ele>
    <time>2025-12-21T12:54:33Z</time>
   </trkpt>
   <trkpt lat="53.3469240" lon="-6.2589720">
    <ele>6.8</ele>
    <time>2025-12-21T12:54:38Z</time>
   </trkpt>
   <trkpt lat="53.3469760" lon="-6.2589810">
    <ele>6.5</ele>
    <time>2025-12-21T12:54:54Z</time>
   </trkpt>
   <trkpt lat="53.3470510" lon="-6.2590280">
    <ele>6.5</ele>
    <time>2025-12-21T12:54:59Z</time>
   </trkpt>
   <trkpt lat="53.3471010" lon="-6.2590000">
    <ele>6.5</ele>
    <time>2025-12-21T12:55:05Z</time>
   </trkpt>
   <trkpt lat="53.3471240" lon="-6.2590680">
    <ele>6.5</ele>
    <time>2025-12-21T12:55:16Z</time>
   </trkpt>
   <trkpt lat="53.3471990" lon="-6.2590490">
    <ele>6.5</ele>
    <time>2025-12-21T12:55:21Z</time>
   </trkpt>
   <trkpt lat="53.3472540" lon="-6.2589570">
    <ele>6.5</ele>
    <time>2025-12-21T12:55:27Z</time>
   </trkpt>
   <trkpt lat="53.3473320" lon="-6.2589350">
    <ele>6.5</ele>
    <time>2025-12-21T12:55:32Z</time>
   </trkpt>
   <trkpt lat="53.3473770" lon="-6.2589120">
    <ele>6.5</ele>
    <time>2025-12-21T12:55:37Z</time>
   </trkpt>
   <trkpt lat="53.3473980" lon="-6.2589850">
    <ele>6.5</ele>
    <time>2025-12-21T12:55:44Z</time>
   </trkpt>
   <trkpt lat="53.3474400" lon="-6.2590220">
    <ele>6.5</ele>
    <time>2025-12-21T12:55:58Z</time>
   </trkpt>
   <trkpt lat="53.3475060" lon="-6.2590660">
    <ele>6.5</ele>
    <time>2025-12-21T12:56:04Z</time>
   </trkpt>
   <trkpt lat="53.3475500" lon="-6.2589870">
    <ele>6.4</ele>
    <time>2025-12-21T12:56:24Z</time>
   </trkpt>
   <trkpt lat="53.3475790" lon="-6.2589090">
    <ele>6.4</ele>
    <time>2025-12-21T12:56:30Z</time>
   </trkpt>
   <trkpt lat="53.3476150" lon="-6.2589630">
    <ele>6.4</ele>
    <time>2025-12-21T12:56:44Z</time>
   </trkpt>
   <trkpt lat="53.3476750" lon="-6.2589910">
    <ele>6.4</ele>
    <time>2025-12-21T12:56:49Z</time>
   </trkpt>
   <trkpt lat="53.3477610" lon="-6.2590610">
    <ele>6.4</ele>
    <time>2025-12-21T12:56:54Z</time>
   </trkpt>
   <trkpt lat="53.3478220" lon="-6.2590740">
    <ele>6.3</ele>
    <time>2025-12-21T12:57:00Z</time>
   </trkpt>
   <trkpt lat="53.3478890" lon="-6.2591350">
    <ele>6.3</ele>
    <time>2025-12-21T12:57:05Z</time>
   </trkpt>
   <trkpt lat="53.3479510" lon="-6.2591630">
    <ele>6.3</ele>
    <time>2025-12-21T12:57:10Z</time>
   </trkpt>
   <trkpt lat="53.3480180" lon="-6.2591910">
    <ele>6.3</ele>
    <time>2025-12-21T12:57:16Z</time>
   </trkpt>
   <trkpt lat="53.3480850" lon="-6.2592260">
    <ele>6.2</ele>
    <time>2025-12-21T12:57:21Z</time>
   </trkpt>
   <trkpt lat="53.3481510" lon="-6.2592750">
    <ele>6.3</ele>
    <time>2025-12-21T12:57:26Z</time>
   </trkpt>
   <trkpt lat="53.3482190" lon="-6.2593040">
    <ele>6.3</ele>
    <time>2025-12-21T12:57:32Z</time>
   </trkpt>
   <trkpt lat="53.3482880" lon="-6.2593360">
    <ele>6.4</ele>
    <time>2025-12-21T12:57:37Z</time>
   </trkpt>
   <trkpt lat="53.3483370" lon="-6.2593370">
    <ele>6.4</ele>
    <time>2025-12-21T12:57:43Z</time>
   </trkpt>
   <trkpt lat="53.3483840" lon="-6.2593250">
    <ele>6.6</ele>
    <time>2025-12-21T12:58:31Z</time>
   </trkpt>
   <trkpt lat="53.3484810" lon="-6.2593570">
    <ele>6.6</ele>
    <time>2025-12-21T12:58:36Z</time>
   </trkpt>
   <trkpt lat="53.3485540" lon="-6.2593950">
    <ele>6.6</ele>
    <time>2025-12-21T12:58:41Z</time>
   </trkpt>
   <trkpt lat="53.3486380" lon="-6.2594850">
    <ele>6.6</ele>
    <time>2025-12-21T12:58:47Z</time>
   </trkpt>
   <trkpt lat="53.3487130" lon="-6.2595170">
    <ele>6.6</ele>
    <time>2025-12-21T12:58:52Z</time>
   </trkpt>
   <trkpt lat="53.3487760" lon="-6.2595620">
    <ele>6.6</ele>
    <time>2025-12-21T12:58:58Z</time>
   </trkpt>
   <trkpt lat="53.3488190" lon="-6.2596070">
    <ele>6.6</ele>
    <time>2025-12-21T12:59:03Z</time>
   </trkpt>
   <trkpt lat="53.3488680" lon="-6.2595950">
    <ele>6.7</ele>
    <time>2025-12-21T12:59:17Z</time>
   </trkpt>
   <trkpt lat="53.3489490" lon="-6.2596150">
    <ele>6.7</ele>
    <time>2025-12-21T12:59:22Z</time>
   </trkpt>
   <trkpt lat="53.3490280" lon="-6.2596420">
    <ele>6.8</ele>
    <time>2025-12-21T12:59:28Z</time>
   </trkpt>
   <trkpt lat="53.3491130" lon="-6.2597010">
    <ele>6.8</ele>
    <time>2025-12-21T12:59:33Z</time>
   </trkpt>
   <trkpt lat="53.3491840" lon="-6.2597330">
    <ele>6.8</ele>
    <time>2025-12-21T12:59:39Z</time>
   </trkpt>
   <trkpt lat="53.3492490" lon="-6.2597670">
    <ele>6.8</ele>
    <time>2025-12-21T12:59:44Z</time>
   </trkpt>
   <trkpt lat="53.3493070" lon="-6.2597770">
    <ele>6.8</ele>
    <time>2025-12-21T12:59:49Z</time>
   </trkpt>
   <trkpt lat="53.3493550" lon="-6.2598070">
    <ele>6.8</ele>
    <time>2025-12-21T12:59:56Z</time>
   </trkpt>
   <trkpt lat="53.3494230" lon="-6.2598350">
    <ele>6.7</ele>
    <time>2025-12-21T13:00:02Z</time>
   </trkpt>
   <trkpt lat="53.3494760" lon="-6.2598250">
    <ele>6.8</ele>
    <time>2025-12-21T13:00:07Z</time>
   </trkpt>
   <trkpt lat="53.3495320" lon="-6.2598650">
    <ele>6.8</ele>
    <time>2025-12-21T13:00:12Z</time>
   </trkpt>
   <trkpt lat="53.3495860" lon="-6.2596480">
    <ele>7.0</ele>
    <time>2025-12-21T13:01:37Z</time>
   </trkpt>
   <trkpt lat="53.3495960" lon="-6.2597240">
    <ele>7.0</ele>
    <time>2025-12-21T13:02:07Z</time>
   </trkpt>
   <trkpt lat="53.3491700" lon="-6.2597290">
    <ele>6.7</ele>
    <time>2025-12-21T13:10:03Z</time>
   </trkpt>
   <trkpt lat="53.3491010" lon="-6.2597310">
    <ele>6.7</ele>
    <time>2025-12-21T13:10:08Z</time>
   </trkpt>
   <trkpt lat="53.3490310" lon="-6.2596920">
    <ele>6.8</ele>
    <time>2025-12-21T13:10:14Z</time>
   </trkpt>
   <trkpt lat="53.3489760" lon="-6.2596270">
    <ele>6.8</ele>
    <time>2025-12-21T13:10:19Z</time>
   </trkpt>
   <trkpt lat="53.3489210" lon="-6.2596140">
    <ele>6.9</ele>
    <time>2025-12-21T13:10:24Z</time>
   </trkpt>
   <trkpt lat="53.3488590" lon="-6.2595520">
    <ele>6.8</ele>
    <time>2025-12-21T13:10:30Z</time>
   </trkpt>
   <trkpt lat="53.3488080" lon="-6.2595210">
    <ele>6.8</ele>
    <time>2025-12-21T13:10:35Z</time>
   </trkpt>
   <trkpt lat="53.3487360" lon="-6.2595030">
    <ele>6.6</ele>
    <time>2025-12-21T13:10:41Z</time>
   </trkpt>
   <trkpt lat="53.3486670" lon="-6.2594920">
    <ele>6.6</ele>
    <time>2025-12-21T13:10:46Z</time>
   </trkpt>
   <trkpt lat="53.3485910" lon="-6.2594710">
    <ele>6.6</ele>
    <time>2025-12-21T13:10:52Z</time>
   </trkpt>
   <trkpt lat="53.3485050" lon="-6.2594320">
    <ele>6.5</ele>
    <time>2025-12-21T13:10:57Z</time>
   </trkpt>
   <trkpt lat="53.3484680" lon="-6.2593750">
    <ele>6.5</ele>
    <time>2025-12-21T13:11:04Z</time>
   </trkpt>
   <trkpt lat="53.3484070" lon="-6.2593190">
    <ele>6.5</ele>
    <time>2025-12-21T13:11:10Z</time>
   </trkpt>
   <trkpt lat="53.3483430" lon="-6.2593420">
    <ele>6.6</ele>
    <time>2025-12-21T13:11:15Z</time>
   </trkpt>
   <trkpt lat="53.3482860" lon="-6.2593130">
    <ele>6.7</ele>
    <time>2025-12-21T13:11:21Z</time>
   </trkpt>
   <trkpt lat="53.3482080" lon="-6.2592820">
    <ele>6.6</ele>
    <time>2025-12-21T13:11:26Z</time>
   </trkpt>
   <trkpt lat="53.3481410" lon="-6.2592490">
    <ele>6.4</ele>
    <time>2025-12-21T13:11:31Z</time>
   </trkpt>
   <trkpt lat="53.3480540" lon="-6.2592090">
    <ele>6.4</ele>
    <time>2025-12-21T13:11:37Z</time>
   </trkpt>
   <trkpt lat="53.3479850" lon="-6.2591680">
    <ele>6.4</ele>
    <time>2025-12-21T13:11:42Z</time>
   </trkpt>
   <trkpt lat="53.3479140" lon="-6.2591350">
    <ele>6.4</ele>
    <time>2025-12-21T13:11:48Z</time>
   </trkpt>
   <trkpt lat="53.3478400" lon="-6.2591070">
    <ele>6.4</ele>
    <time>2025-12-21T13:11:53Z</time>
   </trkpt>
   <trkpt lat="53.3477620" lon="-6.2590540">
    <ele>6.3</ele>
    <time>2025-12-21T13:11:59Z</time>
   </trkpt>
   <trkpt lat="53.3477190" lon="-6.2589740">
    <ele>6.2</ele>
    <time>2025-12-21T13:12:04Z</time>
   </trkpt>
   <trkpt lat="53.3476860" lon="-6.2588780">
    <ele>6.2</ele>
    <time>2025-12-21T13:12:09Z</time>
   </trkpt>
   <trkpt lat="53.3476720" lon="-6.2587460">
    <ele>6.1</ele>
    <time>2025-12-21T13:12:14Z</time>
   </trkpt>
   <trkpt lat="53.3476830" lon="-6.2586250">
    <ele>6.1</ele>
    <time>2025-12-21T13:12:20Z</time>
   </trkpt>
   <trkpt lat="53.3476890" lon="-6.2584980">
    <ele>6.1</ele>
    <time>2025-12-21T13:12:25Z</time>
   </trkpt>
   <trkpt lat="53.3477000" lon="-6.2583810">
    <ele>6.1</ele>
    <time>2025-12-21T13:12:30Z</time>
   </trkpt>
   <trkpt lat="53.3477260" lon="-6.2582700">
    <ele>6.0</ele>
    <time>2025-12-21T13:12:36Z</time>
   </trkpt>
   <trkpt lat="53.3477520" lon="-6.2581510">
    <ele>6.1</ele>
    <time>2025-12-21T13:12:41Z</time>
   </trkpt>
   <trkpt lat="53.3477760" lon="-6.2580580">
    <ele>6.0</ele>
    <time>2025-12-21T13:12:46Z</time>
   </trkpt>
   <trkpt lat="53.3478070" lon="-6.2579600">
    <ele>5.9</ele>
    <time>2025-12-21T13:12:52Z</time>
   </trkpt>
   <trkpt lat="53.3478340" lon="-6.2578450">
    <ele>5.8</ele>
    <time>2025-12-21T13:12:57Z</time>
   </trkpt>
   <trkpt lat="53.3478630" lon="-6.2577230">
    <ele>5.7</ele>
    <time>2025-12-21T13:13:03Z</time>
   </trkpt>
   <trkpt lat="53.3478760" lon="-6.2576200">
    <ele>5.7</ele>
    <time>2025-12-21T13:13:08Z</time>
   </trkpt>
   <trkpt lat="53.3478720" lon="-6.2574930">
    <ele>5.7</ele>
    <time>2025-12-21T13:13:13Z</time>
   </trkpt>
   <trkpt lat="53.3478830" lon="-6.2573720">
    <ele>5.7</ele>
    <time>2025-12-21T13:13:18Z</time>
   </trkpt>
   <trkpt lat="53.3479080" lon="-6.2572200">
    <ele>5.7</ele>
    <time>2025-12-21T13:13:24Z</time>
   </trkpt>
   <trkpt lat="53.3479270" lon="-6.2570920">
    <ele>5.7</ele>
    <time>2025-12-21T13:13:29Z</time>
   </trkpt>
   <trkpt lat="53.3479500" lon="-6.2569750">
    <ele>5.7</ele>
    <time>2025-12-21T13:13:35Z</time>
   </trkpt>
   <trkpt lat="53.3479610" lon="-6.2568620">
    <ele>5.6</ele>
    <time>2025-12-21T13:13:40Z</time>
   </trkpt>
   <trkpt lat="53.3479930" lon="-6.2567390">
    <ele>5.6</ele>
    <time>2025-12-21T13:13:45Z</time>
   </trkpt>
   <trkpt lat="53.3480090" lon="-6.2566130">
    <ele>5.6</ele>
    <time>2025-12-21T13:13:51Z</time>
   </trkpt>
   <trkpt lat="53.3480260" lon="-6.2564910">
    <ele>5.7</ele>
    <time>2025-12-21T13:13:56Z</time>
   </trkpt>
   <trkpt lat="53.3480420" lon="-6.2563640">
    <ele>5.7</ele>
    <time>2025-12-21T13:14:02Z</time>
   </trkpt>
   <trkpt lat="53.3480600" lon="-6.2562370">
    <ele>5.7</ele>
    <time>2025-12-21T13:14:07Z</time>
   </trkpt>
   <trkpt lat="53.3480800" lon="-6.2561270">
    <ele>5.7</ele>
    <time>2025-12-21T13:14:12Z</time>
   </trkpt>
   <trkpt lat="53.3481010" lon="-6.2560250">
    <ele>5.8</ele>
    <time>2025-12-21T13:14:17Z</time>
   </trkpt>
   <trkpt lat="53.3481110" lon="-6.2559490">
    <ele>5.8</ele>
    <time>2025-12-21T13:14:23Z</time>
   </trkpt>
   <trkpt lat="53.3481260" lon="-6.2558230">
    <ele>5.8</ele>
    <time>2025-12-21T13:14:28Z</time>
   </trkpt>
   <trkpt lat="53.3481420" lon="-6.2556860">
    <ele>5.8</ele>
    <time>2025-12-21T13:14:33Z</time>
   </trkpt>
   <trkpt lat="53.3481590" lon="-6.2555780">
    <ele>5.8</ele>
    <time>2025-12-21T13:14:39Z</time>
   </trkpt>
   <trkpt lat="53.3481730" lon="-6.2554700">
    <ele>5.8</ele>
    <time>2025-12-21T13:14:44Z</time>
   </trkpt>
   <trkpt lat="53.3481830" lon="-6.2553490">
    <ele>5.8</ele>
    <time>2025-12-21T13:14:49Z</time>
   </trkpt>
   <trkpt lat="53.3481940" lon="-6.2552080">
    <ele>5.8</ele>
    <time>2025-12-21T13:14:55Z</time>
   </trkpt>
   <trkpt lat="53.3481990" lon="-6.2550690">
    <ele>5.9</ele>
    <time>2025-12-21T13:15:00Z</time>
   </trkpt>
   <trkpt lat="53.3481720" lon="-6.2549190">
    <ele>5.9</ele>
    <time>2025-12-21T13:15:05Z</time>
   </trkpt>
   <trkpt lat="53.3481680" lon="-6.2547800">
    <ele>5.9</ele>
    <time>2025-12-21T13:15:11Z</time>
   </trkpt>
   <trkpt lat="53.3481870" lon="-6.2546770">
    <ele>5.8</ele>
    <time>2025-12-21T13:15:16Z</time>
   </trkpt>
   <trkpt lat="53.3481980" lon="-6.2545990">
    <ele>5.7</ele>
    <time>2025-12-21T13:15:23Z</time>
   </trkpt>
   <trkpt lat="53.3482030" lon="-6.2544790">
    <ele>5.7</ele>
    <time>2025-12-21T13:15:28Z</time>
   </trkpt>
   <trkpt lat="53.3482000" lon="-6.2543530">
    <ele>5.7</ele>
    <time>2025-12-21T13:15:34Z</time>
   </trkpt>
   <trkpt lat="53.3482000" lon="-6.2542350">
    <ele>5.7</ele>
    <time>2025-12-21T13:15:39Z</time>
   </trkpt>
   <trkpt lat="53.3482000" lon="-6.2540990">
    <ele>5.7</ele>
    <time>2025-12-21T13:15:45Z</time>
   </trkpt>
   <trkpt lat="53.3481990" lon="-6.2539630">
    <ele>5.7</ele>
    <time>2025-12-21T13:15:50Z</time>
   </trkpt>
   <trkpt lat="53.3481860" lon="-6.2538240">
    <ele>5.7</ele>
    <time>2025-12-21T13:15:55Z</time>
   </trkpt>
   <trkpt lat="53.3481810" lon="-6.2536720">
    <ele>5.7</ele>
    <time>2025-12-21T13:16:01Z</time>
   </trkpt>
   <trkpt lat="53.3481820" lon="-6.2535460">
    <ele>5.7</ele>
    <time>2025-12-21T13:16:06Z</time>
   </trkpt>
   <trkpt lat="53.3481920" lon="-6.2534110">
    <ele>5.7</ele>
    <time>2025-12-21T13:16:11Z</time>
   </trkpt>
   <trkpt lat="53.3481900" lon="-6.2532890">
    <ele>5.7</ele>
    <time>2025-12-21T13:16:17Z</time>
   </trkpt>
   <trkpt lat="53.3481940" lon="-6.2531740">
    <ele>5.7</ele>
    <time>2025-12-21T13:16:22Z</time>
   </trkpt>
   <trkpt lat="53.3481900" lon="-6.2530520">
    <ele>5.7</ele>
    <time>2025-12-21T13:16:27Z</time>
   </trkpt>
   <trkpt lat="53.3481900" lon="-6.2529280">
    <ele>5.7</ele>
    <time>2025-12-21T13:16:33Z</time>
   </trkpt>
   <trkpt lat="53.3481910" lon="-6.2528010">
    <ele>5.7</ele>
    <time>2025-12-21T13:16:38Z</time>
   </trkpt>
   <trkpt lat="53.3481980" lon="-6.2526790">
    <ele>5.7</ele>
    <time>2025-12-21T13:16:43Z</time>
   </trkpt>
   <trkpt lat="53.3481990" lon="-6.2525620">
    <ele>5.7</ele>
    <time>2025-12-21T13:16:48Z</time>
   </trkpt>
   <trkpt lat="53.3481990" lon="-6.2524400">
    <ele>5.7</ele>
    <time>2025-12-21T13:16:54Z</time>
   </trkpt>
   <trkpt lat="53.3482070" lon="-6.2523200">
    <ele>5.7</ele>
    <time>2025-12-21T13:16:59Z</time>
   </trkpt>
   <trkpt lat="53.3482140" lon="-6.2521760">
    <ele>5.7</ele>
    <time>2025-12-21T13:17:04Z</time>
   </trkpt>
   <trkpt lat="53.3482180" lon="-6.2520460">
    <ele>5.7</ele>
    <time>2025-12-21T13:17:10Z</time>
   </trkpt>
   <trkpt lat="53.3482230" lon="-6.2519260">
    <ele>5.7</ele>
    <time>2025-12-21T13:17:15Z</time>
   </trkpt>
   <trkpt lat="53.3482260" lon="-6.2518110">
    <ele>5.7</ele>
    <time>2025-12-21T13:17:21Z</time>
   </trkpt>
   <trkpt lat="53.3482080" lon="-6.2517140">
    <ele>6.0</ele>
    <time>2025-12-21T13:17:26Z</time>
   </trkpt>
   <trkpt lat="53.3481990" lon="-6.2516350">
    <ele>6.3</ele>
    <time>2025-12-21T13:17:40Z</time>
   </trkpt>
   <trkpt lat="53.3482100" lon="-6.2514480">
    <ele>6.3</ele>
    <time>2025-12-21T13:17:45Z</time>
   </trkpt>
   <trkpt lat="53.3482210" lon="-6.2513710">
    <ele>5.6</ele>
    <time>2025-12-21T13:18:06Z</time>
   </trkpt>
   <trkpt lat="53.3482650" lon="-6.2512530">
    <ele>5.5</ele>
    <time>2025-12-21T13:18:11Z</time>
   </trkpt>
   <trkpt lat="53.3482540" lon="-6.2511480">
    <ele>5.5</ele>
    <time>2025-12-21T13:18:16Z</time>
   </trkpt>
   <trkpt lat="53.3482950" lon="-6.2510570">
    <ele>5.5</ele>
    <time>2025-12-21T13:18:22Z</time>
   </trkpt>
   <trkpt lat="53.3483020" lon="-6.2509420">
    <ele>5.5</ele>
    <time>2025-12-21T13:18:27Z</time>
   </trkpt>
   <trkpt lat="53.3482830" lon="-6.2508260">
    <ele>5.5</ele>
    <time>2025-12-21T13:18:32Z</time>
   </trkpt>
   <trkpt lat="53.3482830" lon="-6.2507420">
    <ele>5.5</ele>
    <time>2025-12-21T13:18:38Z</time>
   </trkpt>
   <trkpt lat="53.3482860" lon="-6.2506060">
    <ele>5.8</ele>
    <time>2025-12-21T13:18:43Z</time>
   </trkpt>
   <trkpt lat="53.3482770" lon="-6.2504500">
    <ele>6.0</ele>
    <time>2025-12-21T13:18:49Z</time>
   </trkpt>
   <trkpt lat="53.3482850" lon="-6.2503180">
    <ele>6.1</ele>
    <time>2025-12-21T13:18:54Z</time>
   </trkpt>
   <trkpt lat="53.3483010" lon="-6.2501990">
    <ele>6.1</ele>
    <time>2025-12-21T13:18:59Z</time>
   </trkpt>
   <trkpt lat="53.3483080" lon="-6.2501140">
    <ele>6.1</ele>
    <time>2025-12-21T13:19:04Z</time>
   </trkpt>
   <trkpt lat="53.3482870" lon="-6.2499950">
    <ele>6.1</ele>
    <time>2025-12-21T13:19:10Z</time>
   </trkpt>
   <trkpt lat="53.3482760" lon="-6.2498690">
    <ele>6.1</ele>
    <time>2025-12-21T13:19:15Z</time>
   </trkpt>
   <trkpt lat="53.3482650" lon="-6.2497310">
    <ele>6.1</ele>
    <time>2025-12-21T13:19:20Z</time>
   </trkpt>
   <trkpt lat="53.3482570" lon="-6.2496130">
    <ele>6.3</ele>
    <time>2025-12-21T13:19:26Z</time>
   </trkpt>
   <trkpt lat="53.3482450" lon="-6.2494830">
    <ele>6.6</ele>
    <time>2025-12-21T13:19:31Z</time>
   </trkpt>
   <trkpt lat="53.3482390" lon="-6.2493550">
    <ele>6.6</ele>
    <time>2025-12-21T13:19:36Z</time>
   </trkpt>
   <trkpt lat="53.3482420" lon="-6.2492400">
    <ele>6.7</ele>
    <time>2025-12-21T13:19:42Z</time>
   </trkpt>
   <trkpt lat="53.3482430" lon="-6.2491260">
    <ele>6.8</ele>
    <time>2025-12-21T13:19:47Z</time>
   </trkpt>
   <trkpt lat="53.3482440" lon="-6.2490260">
    <ele>6.8</ele>
    <time>2025-12-21T13:19:52Z</time>
   </trkpt>
   <trkpt lat="53.3482560" lon="-6.2489370">
    <ele>6.8</ele>
    <time>2025-12-21T13:20:25Z</time>
   </trkpt>
   <trkpt lat="53.3482660" lon="-6.2487970">
    <ele>6.8</ele>
    <time>2025-12-21T13:20:31Z</time>
   </trkpt>
   <trkpt lat="53.3483090" lon="-6.2486890">
    <ele>6.8</ele>
    <time>2025-12-21T13:20:36Z</time>
   </trkpt>
   <trkpt lat="53.3483550" lon="-6.2485790">
    <ele>6.8</ele>
    <time>2025-12-21T13:20:42Z</time>
   </trkpt>
   <trkpt lat="53.3483650" lon="-6.2484510">
    <ele>6.9</ele>
    <time>2025-12-21T13:20:47Z</time>
   </trkpt>
   <trkpt lat="53.3483540" lon="-6.2483380">
    <ele>7.0</ele>
    <time>2025-12-21T13:20:53Z</time>
   </trkpt>
   <trkpt lat="53.3488990" lon="-6.2480210">
    <ele>7.1</ele>
    <time>2025-12-21T13:21:41Z</time>
   </trkpt>
   <trkpt lat="53.3490300" lon="-6.2478850">
    <ele>7.1</ele>
    <time>2025-12-21T13:25:54Z</time>
   </trkpt>
   <trkpt lat="53.3490770" lon="-6.2478870">
    <ele>7.1</ele>
    <time>2025-12-21T13:26:14Z</time>
   </trkpt>
   <trkpt lat="53.3490670" lon="-6.2479630">
    <ele>7.1</ele>
    <time>2025-12-21T13:26:32Z</time>
   </trkpt>
   <trkpt lat="53.3490350" lon="-6.2479090">
    <ele>7.1</ele>
    <time>2025-12-21T13:26:41Z</time>
   </trkpt>
   <trkpt lat="53.3490810" lon="-6.2478970">
    <ele>7.1</ele>
    <time>2025-12-21T13:27:17Z</time>
   </trkpt>
   <trkpt lat="53.3490790" lon="-6.2479770">
    <ele>7.1</ele>
    <time>2025-12-21T13:28:35Z</time>
   </trkpt>
   <trkpt lat="53.3490340" lon="-6.2479410">
    <ele>7.1</ele>
    <time>2025-12-21T13:28:42Z</time>
   </trkpt>
   <trkpt lat="53.3490720" lon="-6.2478990">
    <ele>7.1</ele>
    <time>2025-12-21T13:29:05Z</time>
   </trkpt>
   <trkpt lat="53.3490250" lon="-6.2479240">
    <ele>7.1</ele>
    <time>2025-12-21T13:29:42Z</time>
   </trkpt>
   <trkpt lat="53.3489830" lon="-6.2479540">
    <ele>7.1</ele>
    <time>2025-12-21T13:30:16Z</time>
   </trkpt>
   <trkpt lat="53.3490250" lon="-6.2478730">
    <ele>7.1</ele>
    <time>2025-12-21T13:31:02Z</time>
   </trkpt>
   <trkpt lat="53.3490660" lon="-6.2479030">
    <ele>7.1</ele>
    <time>2025-12-21T13:31:41Z</time>
   </trkpt>
   <trkpt lat="53.3490340" lon="-6.2478450">
    <ele>7.1</ele>
    <time>2025-12-21T13:35:14Z</time>
   </trkpt>
   <trkpt lat="53.3490000" lon="-6.2477880">
    <ele>7.1</ele>
    <time>2025-12-21T13:42:00Z</time>
   </trkpt>
   <trkpt lat="53.3489570" lon="-6.2477550">
    <ele>7.1</ele>
    <time>2025-12-21T13:43:05Z</time>
   </trkpt>
   <trkpt lat="53.3490020" lon="-6.2477930">
    <ele>9.5</ele>
    <time>2025-12-21T13:44:57Z</time>
   </trkpt>
   <trkpt lat="53.3490220" lon="-6.2478620">
    <ele>7.1</ele>
    <time>2025-12-21T13:53:49Z</time>
   </trkpt>
   <trkpt lat="53.3489920" lon="-6.2479310">
    <ele>7.1</ele>
    <time>2025-12-21T13:54:16Z</time>
   </trkpt>
   <trkpt lat="53.3489420" lon="-6.2479760">
    <ele>7.1</ele>
    <time>2025-12-21T13:54:21Z</time>
   </trkpt>
   <trkpt lat="53.3489100" lon="-6.2479190">
    <ele>7.1</ele>
    <time>2025-12-21T13:54:30Z</time>
   </trkpt>
   <trkpt lat="53.3488810" lon="-6.2477590">
    <ele>7.1</ele>
    <time>2025-12-21T13:57:06Z</time>
   </trkpt>
   <trkpt lat="53.3489180" lon="-6.2478690">
    <ele>7.1</ele>
    <time>2025-12-21T13:57:11Z</time>
   </trkpt>
   <trkpt lat="53.3490260" lon="-6.2478540">
    <ele>7.1</ele>
    <time>2025-12-21T13:57:17Z</time>
   </trkpt>
   <trkpt lat="53.3490780" lon="-6.2478760">
    <ele>7.1</ele>
    <time>2025-12-21T13:57:22Z</time>
   </trkpt>
   <trkpt lat="53.3491310" lon="-6.2478750">
    <ele>7.1</ele>
    <time>2025-12-21T13:57:28Z</time>
   </trkpt>
   <trkpt lat="53.3491900" lon="-6.2478630">
    <ele>7.1</ele>
    <time>2025-12-21T13:57:33Z</time>
   </trkpt>
   <trkpt lat="53.3492660" lon="-6.2478660">
    <ele>7.1</ele>
    <time>2025-12-21T13:57:39Z</time>
   </trkpt>
   <trkpt lat="53.3493380" lon="-6.2478510">
    <ele>7.1</ele>
    <time>2025-12-21T13:57:44Z</time>
   </trkpt>
   <trkpt lat="53.3493830" lon="-6.2478730">
    <ele>7.1</ele>
    <time>2025-12-21T13:57:49Z</time>
   </trkpt>
   <trkpt lat="53.3494500" lon="-6.2478830">
    <ele>7.1</ele>
    <time>2025-12-21T13:57:55Z</time>
   </trkpt>
   <trkpt lat="53.3494940" lon="-6.2479080">
    <ele>7.0</ele>
    <time>2025-12-21T13:58:00Z</time>
   </trkpt>
   <trkpt lat="53.3495200" lon="-6.2479700">
    <ele>6.9</ele>
    <time>2025-12-21T13:58:05Z</time>
   </trkpt>
   <trkpt lat="53.3495760" lon="-6.2480370">
    <ele>6.9</ele>
    <time>2025-12-21T13:58:11Z</time>
   </trkpt>
   <trkpt lat="53.3495750" lon="-6.2481550">
    <ele>7.0</ele>
    <time>2025-12-21T13:58:16Z</time>
   </trkpt>
   <trkpt lat="53.3495850" lon="-6.2482330">
    <ele>6.9</ele>
    <time>2025-12-21T13:58:32Z</time>
   </trkpt>
   <trkpt lat="53.3495910" lon="-6.2483580">
    <ele>7.0</ele>
    <time>2025-12-21T13:58:38Z</time>
   </trkpt>
   <trkpt lat="53.3496070" lon="-6.2484640">
    <ele>7.0</ele>
    <time>2025-12-21T13:58:43Z</time>
   </trkpt>
   <trkpt lat="53.3496210" lon="-6.2485780">
    <ele>7.0</ele>
    <time>2025-12-21T13:58:48Z</time>
   </trkpt>
   <trkpt lat="53.3496140" lon="-6.2486780">
    <ele>7.0</ele>
    <time>2025-12-21T13:59:01Z</time>
   </trkpt>
   <trkpt lat="53.3496200" lon="-6.2487870">
    <ele>7.0</ele>
    <time>2025-12-21T13:59:06Z</time>
   </trkpt>
   <trkpt lat="53.3496250" lon="-6.2488960">
    <ele>7.0</ele>
    <time>2025-12-21T13:59:11Z</time>
   </trkpt>
   <trkpt lat="53.3496340" lon="-6.2490210">
    <ele>7.0</ele>
    <time>2025-12-21T13:59:17Z</time>
   </trkpt>
   <trkpt lat="53.3496510" lon="-6.2491310">
    <ele>7.0</ele>
    <time>2025-12-21T13:59:22Z</time>
   </trkpt>
   <trkpt lat="53.3496990" lon="-6.2492300">
    <ele>7.0</ele>
    <time>2025-12-21T13:59:27Z</time>
   </trkpt>
   <trkpt lat="53.3497510" lon="-6.2493040">
    <ele>7.0</ele>
    <time>2025-12-21T13:59:33Z</time>
   </trkpt>
   <trkpt lat="53.3497770" lon="-6.2494160">
    <ele>7.0</ele>
    <time>2025-12-21T13:59:38Z</time>
   </trkpt>
   <trkpt lat="53.3497910" lon="-6.2495320">
    <ele>7.0</ele>
    <time>2025-12-21T13:59:43Z</time>
   </trkpt>
   <trkpt lat="53.3498340" lon="-6.2496650">
    <ele>7.0</ele>
    <time>2025-12-21T13:59:49Z</time>
   </trkpt>
   <trkpt lat="53.3498810" lon="-6.2497570">
    <ele>6.8</ele>
    <time>2025-12-21T13:59:54Z</time>
   </trkpt>
   <trkpt lat="53.3499100" lon="-6.2498970">
    <ele>6.7</ele>
    <time>2025-12-21T14:00:00Z</time>
   </trkpt>
   <trkpt lat="53.3499410" lon="-6.2500140">
    <ele>6.7</ele>
    <time>2025-12-21T14:00:05Z</time>
   </trkpt>
   <trkpt lat="53.3499850" lon="-6.2500870">
    <ele>6.8</ele>
    <time>2025-12-21T14:00:11Z</time>
   </trkpt>
   <trkpt lat="53.3500690" lon="-6.2501210">
    <ele>6.9</ele>
    <time>2025-12-21T14:00:16Z</time>
   </trkpt>
   <trkpt lat="53.3501480" lon="-6.2501280">
    <ele>6.9</ele>
    <time>2025-12-21T14:00:21Z</time>
   </trkpt>
   <trkpt lat="53.3502090" lon="-6.2501170">
    <ele>7.0</ele>
    <time>2025-12-21T14:00:27Z</time>
   </trkpt>
   <trkpt lat="53.3502900" lon="-6.2500990">
    <ele>7.0</ele>
    <time>2025-12-21T14:00:32Z</time>
   </trkpt>
   <trkpt lat="53.3503640" lon="-6.2500780">
    <ele>7.0</ele>
    <time>2025-12-21T14:00:37Z</time>
   </trkpt>
   <trkpt lat="53.3504340" lon="-6.2500460">
    <ele>6.3</ele>
    <time>2025-12-21T14:00:43Z</time>
   </trkpt>
   <trkpt lat="53.3504940" lon="-6.2500010">
    <ele>6.0</ele>
    <time>2025-12-21T14:00:48Z</time>
   </trkpt>
   <trkpt lat="53.3505690" lon="-6.2499540">
    <ele>5.9</ele>
    <time>2025-12-21T14:00:54Z</time>
   </trkpt>
   <trkpt lat="53.3506430" lon="-6.2499000">
    <ele>5.9</ele>
    <time>2025-12-21T14:00:59Z</time>
   </trkpt>
   <trkpt lat="53.3507140" lon="-6.2498440">
    <ele>5.9</ele>
    <time>2025-12-21T14:01:05Z</time>
   </trkpt>
   <trkpt lat="53.3507760" lon="-6.2498300">
    <ele>6.3</ele>
    <time>2025-12-21T14:01:10Z</time>
   </trkpt>
   <trkpt lat="53.3508470" lon="-6.2497950">
    <ele>6.6</ele>
    <time>2025-12-21T14:01:16Z</time>
   </trkpt>
   <trkpt lat="53.3509130" lon="-6.2497950">
    <ele>6.2</ele>
    <time>2025-12-21T14:01:21Z</time>
   </trkpt>
   <trkpt lat="53.3509460" lon="-6.2497250">
    <ele>6.8</ele>
    <time>2025-12-21T14:01:26Z</time>
   </trkpt>
   <trkpt lat="53.3509680" lon="-6.2496530">
    <ele>7.1</ele>
    <time>2025-12-21T14:01:32Z</time>
   </trkpt>
   <trkpt lat="53.3510090" lon="-6.2496100">
    <ele>7.3</ele>
    <time>2025-12-21T14:01:38Z</time>
   </trkpt>
   <trkpt lat="53.3510580" lon="-6.2496320">
    <ele>9.6</ele>
    <time>2025-12-21T14:01:46Z</time>
   </trkpt>
   <trkpt lat="53.3511090" lon="-6.2496060">
    <ele>11.0</ele>
    <time>2025-12-21T14:02:02Z</time>
   </trkpt>
   <trkpt lat="53.3511680" lon="-6.2496090">
    <ele>11.1</ele>
    <time>2025-12-21T14:02:07Z</time>
   </trkpt>
   <trkpt lat="53.3512370" lon="-6.2496400">
    <ele>11.2</ele>
    <time>2025-12-21T14:02:12Z</time>
   </trkpt>
   <trkpt lat="53.3512870" lon="-6.2495510">
    <ele>11.2</ele>
    <time>2025-12-21T14:02:18Z</time>
   </trkpt>
   <trkpt lat="53.3513520" lon="-6.2494880">
    <ele>11.2</ele>
    <time>2025-12-21T14:02:23Z</time>
   </trkpt>
   <trkpt lat="53.3514170" lon="-6.2494820">
    <ele>11.2</ele>
    <time>2025-12-21T14:02:28Z</time>
   </trkpt>
   <trkpt lat="53.3514700" lon="-6.2494290">
    <ele>11.1</ele>
    <time>2025-12-21T14:02:33Z</time>
   </trkpt>
   <trkpt lat="53.3515030" lon="-6.2493640">
    <ele>11.1</ele>
    <time>2025-12-21T14:02:39Z</time>
   </trkpt>
   <trkpt lat="53.3515260" lon="-6.2492750">
    <ele>11.2</ele>
    <time>2025-12-21T14:02:44Z</time>
   </trkpt>
   <trkpt lat="53.3515810" lon="-6.2492530">
    <ele>11.1</ele>
    <time>2025-12-21T14:02:57Z</time>
   </trkpt>
   <trkpt lat="53.3516640" lon="-6.2491630">
    <ele>11.1</ele>
    <time>2025-12-21T14:03:02Z</time>
   </trkpt>
   <trkpt lat="53.3517590" lon="-6.2491390">
    <ele>11.1</ele>
    <time>2025-12-21T14:03:08Z</time>
   </trkpt>
   <trkpt lat="53.3518130" lon="-6.2490440">
    <ele>11.1</ele>
    <time>2025-12-21T14:03:13Z</time>
   </trkpt>
   <trkpt lat="53.3518500" lon="-6.2489450">
    <ele>11.0</ele>
    <time>2025-12-21T14:03:19Z</time>
   </trkpt>
   <trkpt lat="53.3518420" lon="-6.2487640">
    <ele>11.0</ele>
    <time>2025-12-21T14:03:24Z</time>
   </trkpt>
   <trkpt lat="53.3519090" lon="-6.2486890">
    <ele>11.0</ele>
    <time>2025-12-21T14:03:30Z</time>
   </trkpt>
   <trkpt lat="53.3519410" lon="-6.2485720">
    <ele>10.9</ele>
    <time>2025-12-21T14:03:35Z</time>
   </trkpt>
   <trkpt lat="53.3519650" lon="-6.2484810">
    <ele>10.8</ele>
    <time>2025-12-21T14:03:55Z</time>
   </trkpt>
   <trkpt lat="53.3520090" lon="-6.2483590">
    <ele>10.8</ele>
    <time>2025-12-21T14:04:01Z</time>
   </trkpt>
   <trkpt lat="53.3520630" lon="-6.2482160">
    <ele>10.8</ele>
    <time>2025-12-21T14:04:06Z</time>
   </trkpt>
   <trkpt lat="53.3521340" lon="-6.2481050">
    <ele>10.8</ele>
    <time>2025-12-21T14:04:12Z</time>
   </trkpt>
   <trkpt lat="53.3521840" lon="-6.2480130">
    <ele>10.8</ele>
    <time>2025-12-21T14:04:17Z</time>
   </trkpt>
   <trkpt lat="53.3522290" lon="-6.2479150">
    <ele>10.8</ele>
    <time>2025-12-21T14:04:23Z</time>
   </trkpt>
   <trkpt lat="53.3522820" lon="-6.2478540">
    <ele>10.8</ele>
    <time>2025-12-21T14:04:28Z</time>
   </trkpt>
   <trkpt lat="53.3523240" lon="-6.2477620">
    <ele>10.9</ele>
    <time>2025-12-21T14:04:34Z</time>
   </trkpt>
   <trkpt lat="53.3523710" lon="-6.2476750">
    <ele>10.9</ele>
    <time>2025-12-21T14:04:39Z</time>
   </trkpt>
   <trkpt lat="53.3524070" lon="-6.2475810">
    <ele>11.0</ele>
    <time>2025-12-21T14:04:45Z</time>
   </trkpt>
   <trkpt lat="53.3524230" lon="-6.2475050">
    <ele>11.0</ele>
    <time>2025-12-21T14:04:50Z</time>
   </trkpt>
   <trkpt lat="53.3524680" lon="-6.2474010">
    <ele>10.9</ele>
    <time>2025-12-21T14:04:55Z</time>
   </trkpt>
   <trkpt lat="53.3525080" lon="-6.2472950">
    <ele>10.9</ele>
    <time>2025-12-21T14:05:00Z</time>
   </trkpt>
   <trkpt lat="53.3525670" lon="-6.2472620">
    <ele>11.0</ele>
    <time>2025-12-21T14:05:05Z</time>
   </trkpt>
   <trkpt lat="53.3526200" lon="-6.2472720">
    <ele>11.1</ele>
    <time>2025-12-21T14:05:10Z</time>
   </trkpt>
   <trkpt lat="53.3525720" lon="-6.2472680">
    <ele>11.0</ele>
    <time>2025-12-21T14:05:19Z</time>
   </trkpt>
   <trkpt lat="53.3525150" lon="-6.2473800">
    <ele>11.0</ele>
    <time>2025-12-21T14:05:25Z</time>
   </trkpt>
   <trkpt lat="53.3524860" lon="-6.2474440">
    <ele>11.0</ele>
    <time>2025-12-21T14:05:32Z</time>
   </trkpt>
   <trkpt lat="53.3524790" lon="-6.2473650">
    <ele>10.9</ele>
    <time>2025-12-21T14:05:54Z</time>
   </trkpt>
   <trkpt lat="53.3524720" lon="-6.2475040">
    <ele>10.8</ele>
    <time>2025-12-21T14:05:59Z</time>
   </trkpt>
   <trkpt lat="53.3525030" lon="-6.2473910">
    <ele>10.9</ele>
    <time>2025-12-21T14:06:04Z</time>
   </trkpt>
  </trkseg>
 </trk>
</gpx>
